<?xml version="1.0" encoding="UTF-8"?>
<gpx xmlns="http://www.topografix.com/GPX/1/1" xmlns:xsi="http://www.w3.org/2001/XMLSchema-instance" version="1.1" xsi:schemaLocation="http://www.topografix.com/GPX/1/1 http://www.topografix.com/GPX/1/1/gpx.xsd">
  <metadata>
    <name>Lake Doxa Triathlon</name>
  </metadata>
  <trk>
    <name>Lake Doxa Triathlon</name>
    <trkseg>
      <trkpt lat="37.92764" lon="22.279737">
        <ele>891.3124</ele>
        <time>2023-07-15T17:15:00.000Z</time>
      </trkpt>
      <trkpt lat="37.927269" lon="22.280245">
        <ele>891.312412</ele>
        <time>2023-07-15T17:15:06.000Z</time>
      </trkpt>
      <trkpt lat="37.92723" lon="22.280298">
        <ele>891.312405</ele>
        <time>2023-07-15T17:15:07.000Z</time>
      </trkpt>
      <trkpt lat="37.927074" lon="22.280503">
        <ele>891.312408</ele>
        <time>2023-07-15T17:15:09.000Z</time>
      </trkpt>
      <trkpt lat="37.926983" lon="22.280621">
        <ele>891.573398</ele>
        <time>2023-07-15T17:15:10.000Z</time>
      </trkpt>
      <trkpt lat="37.926708" lon="22.280992">
        <ele>893.264884</ele>
        <time>2023-07-15T17:15:14.000Z</time>
      </trkpt>
      <trkpt lat="37.92669" lon="22.281048">
        <ele>893.493325</ele>
        <time>2023-07-15T17:15:15.000Z</time>
      </trkpt>
      <trkpt lat="37.926636" lon="22.281139">
        <ele>893.902315</ele>
        <time>2023-07-15T17:15:16.000Z</time>
      </trkpt>
      <trkpt lat="37.926541" lon="22.281334">
        <ele>894.64829</ele>
        <time>2023-07-15T17:15:18.000Z</time>
      </trkpt>
      <trkpt lat="37.926502" lon="22.28152">
        <ele>895.3103</ele>
        <time>2023-07-15T17:15:20.000Z</time>
      </trkpt>
      <trkpt lat="37.926547" lon="22.281781">
        <ele>896.184711</ele>
        <time>2023-07-15T17:15:22.000Z</time>
      </trkpt>
      <trkpt lat="37.926625" lon="22.28197">
        <ele>896.871442</ele>
        <time>2023-07-15T17:15:24.000Z</time>
      </trkpt>
      <trkpt lat="37.926885" lon="22.282625">
        <ele>899.062108</ele>
        <time>2023-07-15T17:15:30.000Z</time>
      </trkpt>
      <trkpt lat="37.92681" lon="22.282921">
        <ele>899.163297</ele>
        <time>2023-07-15T17:15:33.000Z</time>
      </trkpt>
      <trkpt lat="37.926637" lon="22.283259">
        <ele>899.301797</ele>
        <time>2023-07-15T17:15:37.000Z</time>
      </trkpt>
      <trkpt lat="37.926609" lon="22.283776">
        <ele>899.478863</ele>
        <time>2023-07-15T17:15:42.000Z</time>
      </trkpt>
      <trkpt lat="37.926567" lon="22.284001">
        <ele>899.561441</ele>
        <time>2023-07-15T17:15:44.000Z</time>
      </trkpt>
      <trkpt lat="37.926493" lon="22.28413">
        <ele>899.615052</ele>
        <time>2023-07-15T17:15:45.000Z</time>
      </trkpt>
      <trkpt lat="37.926188" lon="22.284331">
        <ele>899.759117</ele>
        <time>2023-07-15T17:15:49.000Z</time>
      </trkpt>
      <trkpt lat="37.926067" lon="22.284853">
        <ele>899.685298</ele>
        <time>2023-07-15T17:15:54.000Z</time>
      </trkpt>
      <trkpt lat="37.925748" lon="22.28529">
        <ele>899.507207</ele>
        <time>2023-07-15T17:15:59.000Z</time>
      </trkpt>
      <trkpt lat="37.925265" lon="22.285476">
        <ele>899.315853</ele>
        <time>2023-07-15T17:16:05.000Z</time>
      </trkpt>
      <trkpt lat="37.924998" lon="22.285668">
        <ele>899.203328</ele>
        <time>2023-07-15T17:16:08.000Z</time>
      </trkpt>
      <trkpt lat="37.924969" lon="22.285859">
        <ele>899.142837</ele>
        <time>2023-07-15T17:16:10.000Z</time>
      </trkpt>
      <trkpt lat="37.925051" lon="22.286037">
        <ele>898.741164</ele>
        <time>2023-07-15T17:16:12.000Z</time>
      </trkpt>
      <trkpt lat="37.925282" lon="22.286208">
        <ele>898.001793</ele>
        <time>2023-07-15T17:16:15.000Z</time>
      </trkpt>
      <trkpt lat="37.925622" lon="22.286348">
        <ele>896.979196</ele>
        <time>2023-07-15T17:16:19.000Z</time>
      </trkpt>
      <trkpt lat="37.926038" lon="22.28631">
        <ele>895.865084</ele>
        <time>2023-07-15T17:16:24.000Z</time>
      </trkpt>
      <trkpt lat="37.926472" lon="22.28614">
        <ele>894.56373</ele>
        <time>2023-07-15T17:16:29.000Z</time>
      </trkpt>
      <trkpt lat="37.926553" lon="22.286122">
        <ele>894.358421</ele>
        <time>2023-07-15T17:16:30.000Z</time>
      </trkpt>
      <trkpt lat="37.926841" lon="22.286104">
        <ele>893.988308</ele>
        <time>2023-07-15T17:16:33.000Z</time>
      </trkpt>
      <trkpt lat="37.927135" lon="22.286076">
        <ele>893.802364</ele>
        <time>2023-07-15T17:16:36.000Z</time>
      </trkpt>
      <trkpt lat="37.927282" lon="22.286129">
        <ele>893.703351</ele>
        <time>2023-07-15T17:16:38.000Z</time>
      </trkpt>
      <trkpt lat="37.927322" lon="22.286163">
        <ele>893.679415</ele>
        <time>2023-07-15T17:16:39.000Z</time>
      </trkpt>
      <trkpt lat="37.927377" lon="22.286277">
        <ele>893.613515</ele>
        <time>2023-07-15T17:16:40.000Z</time>
      </trkpt>
      <trkpt lat="37.927364" lon="22.286404">
        <ele>893.544828</ele>
        <time>2023-07-15T17:16:41.000Z</time>
      </trkpt>
      <trkpt lat="37.927352" lon="22.286463">
        <ele>893.515036</ele>
        <time>2023-07-15T17:16:42.000Z</time>
      </trkpt>
      <trkpt lat="37.927063" lon="22.286886">
        <ele>893.234736</ele>
        <time>2023-07-15T17:16:47.000Z</time>
      </trkpt>
      <trkpt lat="37.927026" lon="22.286949">
        <ele>893.193504</ele>
        <time>2023-07-15T17:16:48.000Z</time>
      </trkpt>
      <trkpt lat="37.926669" lon="22.287212">
        <ele>893.093352</ele>
        <time>2023-07-15T17:16:53.000Z</time>
      </trkpt>
      <trkpt lat="37.926437" lon="22.287494">
        <ele>893.662464</ele>
        <time>2023-07-15T17:16:57.000Z</time>
      </trkpt>
      <trkpt lat="37.926287" lon="22.287618">
        <ele>893.981999</ele>
        <time>2023-07-15T17:16:59.000Z</time>
      </trkpt>
      <trkpt lat="37.926096" lon="22.28764">
        <ele>894.301233</ele>
        <time>2023-07-15T17:17:01.000Z</time>
      </trkpt>
      <trkpt lat="37.925873" lon="22.287553">
        <ele>894.69201</ele>
        <time>2023-07-15T17:17:04.000Z</time>
      </trkpt>
      <trkpt lat="37.925673" lon="22.287614">
        <ele>895.051226</ele>
        <time>2023-07-15T17:17:06.000Z</time>
      </trkpt>
      <trkpt lat="37.925447" lon="22.287819">
        <ele>895.533173</ele>
        <time>2023-07-15T17:17:09.000Z</time>
      </trkpt>
      <trkpt lat="37.925393" lon="22.288059">
        <ele>895.885177</ele>
        <time>2023-07-15T17:17:11.000Z</time>
      </trkpt>
      <trkpt lat="37.925388" lon="22.288273">
        <ele>896.023444</ele>
        <time>2023-07-15T17:17:13.000Z</time>
      </trkpt>
      <trkpt lat="37.925488" lon="22.288406">
        <ele>895.867531</ele>
        <time>2023-07-15T17:17:15.000Z</time>
      </trkpt>
      <trkpt lat="37.925639" lon="22.288765">
        <ele>895.545651</ele>
        <time>2023-07-15T17:17:19.000Z</time>
      </trkpt>
      <trkpt lat="37.925673" lon="22.289266">
        <ele>895.141008</ele>
        <time>2023-07-15T17:17:23.000Z</time>
      </trkpt>
      <trkpt lat="37.925573" lon="22.289519">
        <ele>894.907154</ele>
        <time>2023-07-15T17:17:25.000Z</time>
      </trkpt>
      <trkpt lat="37.924881" lon="22.290186">
        <ele>894.119716</ele>
        <time>2023-07-15T17:17:35.000Z</time>
      </trkpt>
      <trkpt lat="37.92403" lon="22.290586">
        <ele>893.637212</ele>
        <time>2023-07-15T17:17:45.000Z</time>
      </trkpt>
      <trkpt lat="37.923688" lon="22.290798">
        <ele>893.438276</ele>
        <time>2023-07-15T17:17:49.000Z</time>
      </trkpt>
      <trkpt lat="37.923586" lon="22.290956">
        <ele>893.353806</ele>
        <time>2023-07-15T17:17:51.000Z</time>
      </trkpt>
      <trkpt lat="37.923562" lon="22.291201">
        <ele>893.216524</ele>
        <time>2023-07-15T17:17:53.000Z</time>
      </trkpt>
      <trkpt lat="37.923872" lon="22.292082">
        <ele>892.436386</ele>
        <time>2023-07-15T17:18:01.000Z</time>
      </trkpt>
      <trkpt lat="37.923882" lon="22.292289">
        <ele>892.26729</ele>
        <time>2023-07-15T17:18:03.000Z</time>
      </trkpt>
      <trkpt lat="37.923895" lon="22.292455">
        <ele>892.128015</ele>
        <time>2023-07-15T17:18:04.000Z</time>
      </trkpt>
      <trkpt lat="37.923808" lon="22.292655">
        <ele>891.941378</ele>
        <time>2023-07-15T17:18:06.000Z</time>
      </trkpt>
      <trkpt lat="37.923782" lon="22.292721">
        <ele>891.882054</ele>
        <time>2023-07-15T17:18:07.000Z</time>
      </trkpt>
      <trkpt lat="37.923602" lon="22.293004">
        <ele>891.577155</ele>
        <time>2023-07-15T17:18:10.000Z</time>
      </trkpt>
      <trkpt lat="37.923274" lon="22.293475">
        <ele>890.68349</ele>
        <time>2023-07-15T17:18:16.000Z</time>
      </trkpt>
      <trkpt lat="37.923254" lon="22.293644">
        <ele>890.41496</ele>
        <time>2023-07-15T17:18:17.000Z</time>
      </trkpt>
      <trkpt lat="37.923332" lon="22.293641">
        <ele>890.266047</ele>
        <time>2023-07-15T17:18:18.000Z</time>
      </trkpt>
      <trkpt lat="37.923546" lon="22.293532">
        <ele>889.795412</ele>
        <time>2023-07-15T17:18:21.000Z</time>
      </trkpt>
      <trkpt lat="37.924054" lon="22.293142">
        <ele>888.511839</ele>
        <time>2023-07-15T17:18:28.000Z</time>
      </trkpt>
      <trkpt lat="37.924371" lon="22.292995">
        <ele>887.811009</ele>
        <time>2023-07-15T17:18:32.000Z</time>
      </trkpt>
      <trkpt lat="37.92501" lon="22.292816">
        <ele>887.60329</ele>
        <time>2023-07-15T17:18:39.000Z</time>
      </trkpt>
      <trkpt lat="37.925491" lon="22.292782">
        <ele>887.607369</ele>
        <time>2023-07-15T17:18:44.000Z</time>
      </trkpt>
      <trkpt lat="37.926518" lon="22.292315">
        <ele>888.078876</ele>
        <time>2023-07-15T17:18:56.000Z</time>
      </trkpt>
      <trkpt lat="37.9266" lon="22.29222">
        <ele>888.24379</ele>
        <time>2023-07-15T17:18:57.000Z</time>
      </trkpt>
      <trkpt lat="37.927102" lon="22.291706">
        <ele>889.164861</ele>
        <time>2023-07-15T17:19:04.000Z</time>
      </trkpt>
      <trkpt lat="37.927292" lon="22.291535">
        <ele>889.483588</ele>
        <time>2023-07-15T17:19:07.000Z</time>
      </trkpt>
      <trkpt lat="37.927348" lon="22.291471">
        <ele>889.585345</ele>
        <time>2023-07-15T17:19:08.000Z</time>
      </trkpt>
      <trkpt lat="37.927437" lon="22.291447">
        <ele>889.71127</ele>
        <time>2023-07-15T17:19:09.000Z</time>
      </trkpt>
      <trkpt lat="37.927742" lon="22.291376">
        <ele>890.150028</ele>
        <time>2023-07-15T17:19:12.000Z</time>
      </trkpt>
      <trkpt lat="37.927903" lon="22.29133">
        <ele>890.329915</ele>
        <time>2023-07-15T17:19:14.000Z</time>
      </trkpt>
      <trkpt lat="37.927907" lon="22.291329">
        <ele>890.345772</ele>
        <time>2023-07-15T17:19:14.000Z</time>
      </trkpt>
      <trkpt lat="37.928229" lon="22.291244">
        <ele>890.686177</ele>
        <time>2023-07-15T17:19:18.000Z</time>
      </trkpt>
      <trkpt lat="37.928354" lon="22.291212">
        <ele>890.805783</ele>
        <time>2023-07-15T17:19:19.000Z</time>
      </trkpt>
      <trkpt lat="37.928399" lon="22.291187">
        <ele>890.867005</ele>
        <time>2023-07-15T17:19:20.000Z</time>
      </trkpt>
      <trkpt lat="37.928565" lon="22.291047">
        <ele>891.071594</ele>
        <time>2023-07-15T17:19:22.000Z</time>
      </trkpt>
      <trkpt lat="37.928651" lon="22.290977">
        <ele>891.167732</ele>
        <time>2023-07-15T17:19:23.000Z</time>
      </trkpt>
      <trkpt lat="37.929239" lon="22.290485">
        <ele>891.897742</ele>
        <time>2023-07-15T17:19:31.000Z</time>
      </trkpt>
      <trkpt lat="37.929561" lon="22.290279">
        <ele>891.533321</ele>
        <time>2023-07-15T17:19:35.000Z</time>
      </trkpt>
      <trkpt lat="37.929581" lon="22.290272">
        <ele>891.508157</ele>
        <time>2023-07-15T17:19:35.000Z</time>
      </trkpt>
      <trkpt lat="37.929617" lon="22.290244">
        <ele>891.436088</ele>
        <time>2023-07-15T17:19:35.000Z</time>
      </trkpt>
      <trkpt lat="37.929682" lon="22.290241">
        <ele>891.310943</ele>
        <time>2023-07-15T17:19:36.000Z</time>
      </trkpt>
      <trkpt lat="37.929895" lon="22.290226">
        <ele>890.863275</ele>
        <time>2023-07-15T17:19:38.000Z</time>
      </trkpt>
      <trkpt lat="37.929994" lon="22.290214">
        <ele>890.683484</ele>
        <time>2023-07-15T17:19:39.000Z</time>
      </trkpt>
      <trkpt lat="37.930242" lon="22.290189">
        <ele>890.195893</ele>
        <time>2023-07-15T17:19:42.000Z</time>
      </trkpt>
      <trkpt lat="37.93036" lon="22.290181">
        <ele>889.976644</ele>
        <time>2023-07-15T17:19:43.000Z</time>
      </trkpt>
      <trkpt lat="37.931901" lon="22.288989">
        <ele>884.301722</ele>
        <time>2023-07-15T17:20:03.000Z</time>
      </trkpt>
      <trkpt lat="37.932248" lon="22.288724">
        <ele>882.694939</ele>
        <time>2023-07-15T17:20:08.000Z</time>
      </trkpt>
      <trkpt lat="37.932177" lon="22.288517">
        <ele>881.966476</ele>
        <time>2023-07-15T17:20:10.000Z</time>
      </trkpt>
      <trkpt lat="37.932112" lon="22.288386">
        <ele>881.483279</ele>
        <time>2023-07-15T17:20:11.000Z</time>
      </trkpt>
      <trkpt lat="37.931803" lon="22.287847">
        <ele>880.654701</ele>
        <time>2023-07-15T17:20:17.000Z</time>
      </trkpt>
      <trkpt lat="37.931534" lon="22.287089">
        <ele>879.742969</ele>
        <time>2023-07-15T17:20:24.000Z</time>
      </trkpt>
      <trkpt lat="37.93138" lon="22.286615">
        <ele>879.172239</ele>
        <time>2023-07-15T17:20:28.000Z</time>
      </trkpt>
      <trkpt lat="37.93135" lon="22.28652">
        <ele>879.070347</ele>
        <time>2023-07-15T17:20:29.000Z</time>
      </trkpt>
      <trkpt lat="37.931343" lon="22.286333">
        <ele>878.854107</ele>
        <time>2023-07-15T17:20:31.000Z</time>
      </trkpt>
      <trkpt lat="37.931329" lon="22.286231">
        <ele>878.798698</ele>
        <time>2023-07-15T17:20:32.000Z</time>
      </trkpt>
      <trkpt lat="37.931318" lon="22.28612">
        <ele>878.741015</ele>
        <time>2023-07-15T17:20:33.000Z</time>
      </trkpt>
      <trkpt lat="37.931298" lon="22.285889">
        <ele>878.633564</ele>
        <time>2023-07-15T17:20:35.000Z</time>
      </trkpt>
      <trkpt lat="37.931293" lon="22.285434">
        <ele>878.405723</ele>
        <time>2023-07-15T17:20:39.000Z</time>
      </trkpt>
      <trkpt lat="37.931388" lon="22.285078">
        <ele>878.22192</ele>
        <time>2023-07-15T17:20:42.000Z</time>
      </trkpt>
      <trkpt lat="37.93146" lon="22.284989">
        <ele>878.163951</ele>
        <time>2023-07-15T17:20:43.000Z</time>
      </trkpt>
      <trkpt lat="37.931691" lon="22.284685">
        <ele>877.953054</ele>
        <time>2023-07-15T17:20:47.000Z</time>
      </trkpt>
      <trkpt lat="37.931728" lon="22.284595">
        <ele>877.900102</ele>
        <time>2023-07-15T17:20:48.000Z</time>
      </trkpt>
      <trkpt lat="37.931756" lon="22.284529">
        <ele>877.871806</ele>
        <time>2023-07-15T17:20:49.000Z</time>
      </trkpt>
      <trkpt lat="37.931741" lon="22.284486">
        <ele>877.842553</ele>
        <time>2023-07-15T17:20:49.000Z</time>
      </trkpt>
      <trkpt lat="37.931722" lon="22.284364">
        <ele>877.784969</ele>
        <time>2023-07-15T17:20:50.000Z</time>
      </trkpt>
      <trkpt lat="37.931722" lon="22.284318">
        <ele>877.765166</ele>
        <time>2023-07-15T17:20:50.000Z</time>
      </trkpt>
      <trkpt lat="37.931726" lon="22.284296">
        <ele>877.755696</ele>
        <time>2023-07-15T17:20:50.000Z</time>
      </trkpt>
      <trkpt lat="37.931611" lon="22.284119">
        <ele>877.554906</ele>
        <time>2023-07-15T17:20:52.000Z</time>
      </trkpt>
      <trkpt lat="37.931508" lon="22.284036">
        <ele>877.409004</ele>
        <time>2023-07-15T17:20:53.000Z</time>
      </trkpt>
      <trkpt lat="37.931362" lon="22.283745">
        <ele>877.056613</ele>
        <time>2023-07-15T17:20:56.000Z</time>
      </trkpt>
      <trkpt lat="37.931299" lon="22.283493">
        <ele>876.788397</ele>
        <time>2023-07-15T17:20:58.000Z</time>
      </trkpt>
      <trkpt lat="37.931232" lon="22.282938">
        <ele>876.223637</ele>
        <time>2023-07-15T17:21:03.000Z</time>
      </trkpt>
      <trkpt lat="37.931117" lon="22.281686">
        <ele>875.6018</ele>
        <time>2023-07-15T17:21:14.000Z</time>
      </trkpt>
      <trkpt lat="37.93103" lon="22.281367">
        <ele>875.716805</ele>
        <time>2023-07-15T17:21:17.000Z</time>
      </trkpt>
      <trkpt lat="37.930475" lon="22.280597">
        <ele>876.065271</ele>
        <time>2023-07-15T17:21:26.000Z</time>
      </trkpt>
      <trkpt lat="37.930327" lon="22.280422">
        <ele>876.151717</ele>
        <time>2023-07-15T17:21:28.000Z</time>
      </trkpt>
      <trkpt lat="37.930237" lon="22.280308">
        <ele>876.208789</ele>
        <time>2023-07-15T17:21:29.000Z</time>
      </trkpt>
      <trkpt lat="37.929987" lon="22.279861">
        <ele>877.048589</ele>
        <time>2023-07-15T17:21:34.000Z</time>
      </trkpt>
      <trkpt lat="37.929988" lon="22.279842">
        <ele>877.080207</ele>
        <time>2023-07-15T17:21:34.000Z</time>
      </trkpt>
      <trkpt lat="37.929978" lon="22.279838">
        <ele>877.11625</ele>
        <time>2023-07-15T17:21:34.000Z</time>
      </trkpt>
      <trkpt lat="37.929883" lon="22.279603">
        <ele>877.503327</ele>
        <time>2023-07-15T17:21:36.000Z</time>
      </trkpt>
      <trkpt lat="37.929812" lon="22.279335">
        <ele>877.934009</ele>
        <time>2023-07-15T17:21:38.000Z</time>
      </trkpt>
      <trkpt lat="37.929693" lon="22.279196">
        <ele>878.243276</ele>
        <time>2023-07-15T17:21:40.000Z</time>
      </trkpt>
      <trkpt lat="37.929585" lon="22.279067">
        <ele>878.532722</ele>
        <time>2023-07-15T17:21:42.000Z</time>
      </trkpt>
      <trkpt lat="37.929592" lon="22.279062">
        <ele>878.55225</ele>
        <time>2023-07-15T17:21:42.000Z</time>
      </trkpt>
      <trkpt lat="37.929493" lon="22.279044">
        <ele>878.725669</ele>
        <time>2023-07-15T17:21:43.000Z</time>
      </trkpt>
      <trkpt lat="37.929416" lon="22.279036">
        <ele>878.867424</ele>
        <time>2023-07-15T17:21:44.000Z</time>
      </trkpt>
      <trkpt lat="37.929386" lon="22.279049">
        <ele>878.922308</ele>
        <time>2023-07-15T17:21:44.000Z</time>
      </trkpt>
      <trkpt lat="37.929394" lon="22.279049">
        <ele>878.940011</ele>
        <time>2023-07-15T17:21:44.000Z</time>
      </trkpt>
      <trkpt lat="37.929015" lon="22.279072">
        <ele>879.654261</ele>
        <time>2023-07-15T17:21:48.000Z</time>
      </trkpt>
      <trkpt lat="37.92868" lon="22.279103">
        <ele>880.970389</ele>
        <time>2023-07-15T17:21:52.000Z</time>
      </trkpt>
      <trkpt lat="37.928403" lon="22.279123">
        <ele>882.080314</ele>
        <time>2023-07-15T17:21:55.000Z</time>
      </trkpt>
      <trkpt lat="37.928373" lon="22.279116">
        <ele>882.216016</ele>
        <time>2023-07-15T17:21:55.000Z</time>
      </trkpt>
      <trkpt lat="37.928363" lon="22.279121">
        <ele>882.289923</ele>
        <time>2023-07-15T17:21:55.000Z</time>
      </trkpt>
      <trkpt lat="37.928279" lon="22.279154">
        <ele>882.65061</ele>
        <time>2023-07-15T17:21:56.000Z</time>
      </trkpt>
      <trkpt lat="37.928136" lon="22.279215">
        <ele>883.235148</ele>
        <time>2023-07-15T17:21:58.000Z</time>
      </trkpt>
      <trkpt lat="37.928039" lon="22.27926">
        <ele>883.707289</ele>
        <time>2023-07-15T17:21:59.000Z</time>
      </trkpt>
      <trkpt lat="37.927908" lon="22.279392">
        <ele>884.363044</ele>
        <time>2023-07-15T17:22:01.000Z</time>
      </trkpt>
      <trkpt lat="37.927775" lon="22.279558">
        <ele>885.110223</ele>
        <time>2023-07-15T17:22:03.000Z</time>
      </trkpt>
      <trkpt lat="37.927741" lon="22.279622">
        <ele>885.385595</ele>
        <time>2023-07-15T17:22:04.000Z</time>
      </trkpt>
      <trkpt lat="37.927701" lon="22.279654">
        <ele>885.576852</ele>
        <time>2023-07-15T17:22:05.000Z</time>
      </trkpt>
      <trkpt lat="37.927641" lon="22.279738">
        <ele>885.951865</ele>
        <time>2023-07-15T17:22:06.000Z</time>
      </trkpt>
      <trkpt lat="37.927273" lon="22.280242">
        <ele>888.551301</ele>
        <time>2023-07-15T17:22:12.000Z</time>
      </trkpt>
      <trkpt lat="37.927244" lon="22.280282">
        <ele>888.837751</ele>
        <time>2023-07-15T17:22:12.000Z</time>
      </trkpt>
      <trkpt lat="37.927074" lon="22.280505">
        <ele>890.136059</ele>
        <time>2023-07-15T17:22:15.000Z</time>
      </trkpt>
      <trkpt lat="37.926987" lon="22.280628">
        <ele>890.868489</ele>
        <time>2023-07-15T17:22:16.000Z</time>
      </trkpt>
      <trkpt lat="37.926716" lon="22.281001">
        <ele>893.055128</ele>
        <time>2023-07-15T17:22:20.000Z</time>
      </trkpt>
      <trkpt lat="37.926681" lon="22.281045">
        <ele>893.350437</ele>
        <time>2023-07-15T17:22:21.000Z</time>
      </trkpt>
      <trkpt lat="37.926618" lon="22.281142">
        <ele>893.879172</ele>
        <time>2023-07-15T17:22:22.000Z</time>
      </trkpt>
      <trkpt lat="37.926543" lon="22.281327">
        <ele>894.843525</ele>
        <time>2023-07-15T17:22:24.000Z</time>
      </trkpt>
      <trkpt lat="37.926502" lon="22.281523">
        <ele>895.699315</ele>
        <time>2023-07-15T17:22:26.000Z</time>
      </trkpt>
      <trkpt lat="37.926544" lon="22.281785">
        <ele>896.829695</ele>
        <time>2023-07-15T17:22:28.000Z</time>
      </trkpt>
      <trkpt lat="37.926613" lon="22.281959">
        <ele>897.261022</ele>
        <time>2023-07-15T17:22:30.000Z</time>
      </trkpt>
      <trkpt lat="37.926873" lon="22.282628">
        <ele>898.200466</ele>
        <time>2023-07-15T17:22:37.000Z</time>
      </trkpt>
      <trkpt lat="37.926814" lon="22.282923">
        <ele>898.572652</ele>
        <time>2023-07-15T17:22:40.000Z</time>
      </trkpt>
      <trkpt lat="37.926639" lon="22.283266">
        <ele>899.082075</ele>
        <time>2023-07-15T17:22:44.000Z</time>
      </trkpt>
      <trkpt lat="37.926622" lon="22.283771">
        <ele>899.73328</ele>
        <time>2023-07-15T17:22:48.000Z</time>
      </trkpt>
      <trkpt lat="37.92657" lon="22.284007">
        <ele>899.93916</ele>
        <time>2023-07-15T17:22:50.000Z</time>
      </trkpt>
      <trkpt lat="37.926482" lon="22.284136">
        <ele>899.918054</ele>
        <time>2023-07-15T17:22:51.000Z</time>
      </trkpt>
      <trkpt lat="37.926202" lon="22.28432">
        <ele>899.861389</ele>
        <time>2023-07-15T17:22:55.000Z</time>
      </trkpt>
      <trkpt lat="37.926072" lon="22.284842">
        <ele>899.78803</ele>
        <time>2023-07-15T17:23:00.000Z</time>
      </trkpt>
      <trkpt lat="37.925751" lon="22.285295">
        <ele>899.706604</ele>
        <time>2023-07-15T17:23:05.000Z</time>
      </trkpt>
      <trkpt lat="37.925267" lon="22.285488">
        <ele>899.382918</ele>
        <time>2023-07-15T17:23:11.000Z</time>
      </trkpt>
      <trkpt lat="37.924996" lon="22.28565">
        <ele>898.787335</ele>
        <time>2023-07-15T17:23:14.000Z</time>
      </trkpt>
      <trkpt lat="37.924965" lon="22.285863">
        <ele>898.467188</ele>
        <time>2023-07-15T17:23:16.000Z</time>
      </trkpt>
      <trkpt lat="37.925048" lon="22.286044">
        <ele>898.141442</ele>
        <time>2023-07-15T17:23:18.000Z</time>
      </trkpt>
      <trkpt lat="37.925286" lon="22.286209">
        <ele>897.616881</ele>
        <time>2023-07-15T17:23:21.000Z</time>
      </trkpt>
      <trkpt lat="37.925623" lon="22.286352">
        <ele>896.8914</ele>
        <time>2023-07-15T17:23:25.000Z</time>
      </trkpt>
      <trkpt lat="37.926034" lon="22.286304">
        <ele>896.100961</ele>
        <time>2023-07-15T17:23:30.000Z</time>
      </trkpt>
      <trkpt lat="37.926485" lon="22.286147">
        <ele>895.156773</ele>
        <time>2023-07-15T17:23:35.000Z</time>
      </trkpt>
      <trkpt lat="37.926556" lon="22.286115">
        <ele>895.007747</ele>
        <time>2023-07-15T17:23:36.000Z</time>
      </trkpt>
      <trkpt lat="37.926838" lon="22.2861">
        <ele>894.407739</ele>
        <time>2023-07-15T17:23:39.000Z</time>
      </trkpt>
      <trkpt lat="37.927149" lon="22.286074">
        <ele>893.813878</ele>
        <time>2023-07-15T17:23:42.000Z</time>
      </trkpt>
      <trkpt lat="37.927283" lon="22.286124">
        <ele>893.497663</ele>
        <time>2023-07-15T17:23:44.000Z</time>
      </trkpt>
      <trkpt lat="37.927313" lon="22.286174">
        <ele>893.421251</ele>
        <time>2023-07-15T17:23:45.000Z</time>
      </trkpt>
      <trkpt lat="37.92738" lon="22.286265">
        <ele>893.210753</ele>
        <time>2023-07-15T17:23:46.000Z</time>
      </trkpt>
      <trkpt lat="37.927365" lon="22.286415">
        <ele>892.991427</ele>
        <time>2023-07-15T17:23:47.000Z</time>
      </trkpt>
      <trkpt lat="37.927347" lon="22.286475">
        <ele>892.896249</ele>
        <time>2023-07-15T17:23:48.000Z</time>
      </trkpt>
      <trkpt lat="37.927057" lon="22.286894">
        <ele>892.811794</ele>
        <time>2023-07-15T17:23:53.000Z</time>
      </trkpt>
      <trkpt lat="37.927025" lon="22.286952">
        <ele>892.918613</ele>
        <time>2023-07-15T17:23:54.000Z</time>
      </trkpt>
      <trkpt lat="37.926681" lon="22.287198">
        <ele>893.566776</ele>
        <time>2023-07-15T17:23:58.000Z</time>
      </trkpt>
      <trkpt lat="37.926452" lon="22.287496">
        <ele>894.109868</ele>
        <time>2023-07-15T17:24:02.000Z</time>
      </trkpt>
      <trkpt lat="37.92629" lon="22.287616">
        <ele>894.414776</ele>
        <time>2023-07-15T17:24:04.000Z</time>
      </trkpt>
      <trkpt lat="37.926099" lon="22.287639">
        <ele>894.719431</ele>
        <time>2023-07-15T17:24:06.000Z</time>
      </trkpt>
      <trkpt lat="37.925877" lon="22.287562">
        <ele>895.092337</ele>
        <time>2023-07-15T17:24:09.000Z</time>
      </trkpt>
      <trkpt lat="37.925682" lon="22.287625">
        <ele>895.394963</ele>
        <time>2023-07-15T17:24:11.000Z</time>
      </trkpt>
      <trkpt lat="37.925451" lon="22.287812">
        <ele>895.345963</ele>
        <time>2023-07-15T17:24:14.000Z</time>
      </trkpt>
      <trkpt lat="37.925391" lon="22.288065">
        <ele>895.310176</ele>
        <time>2023-07-15T17:24:16.000Z</time>
      </trkpt>
      <trkpt lat="37.925386" lon="22.288274">
        <ele>895.282048</ele>
        <time>2023-07-15T17:24:18.000Z</time>
      </trkpt>
      <trkpt lat="37.925497" lon="22.288407">
        <ele>895.255458</ele>
        <time>2023-07-15T17:24:20.000Z</time>
      </trkpt>
      <trkpt lat="37.925628" lon="22.288759">
        <ele>895.200522</ele>
        <time>2023-07-15T17:24:23.000Z</time>
      </trkpt>
      <trkpt lat="37.925674" lon="22.289256">
        <ele>895.131491</ele>
        <time>2023-07-15T17:24:27.000Z</time>
      </trkpt>
      <trkpt lat="37.925582" lon="22.289512">
        <ele>895.091596</ele>
        <time>2023-07-15T17:24:29.000Z</time>
      </trkpt>
      <trkpt lat="37.924895" lon="22.290202">
        <ele>894.298588</ele>
        <time>2023-07-15T17:24:39.000Z</time>
      </trkpt>
      <trkpt lat="37.924025" lon="22.290587">
        <ele>893.434034</ele>
        <time>2023-07-15T17:24:49.000Z</time>
      </trkpt>
      <trkpt lat="37.923694" lon="22.290809">
        <ele>893.227365</ele>
        <time>2023-07-15T17:24:53.000Z</time>
      </trkpt>
      <trkpt lat="37.923591" lon="22.29097">
        <ele>893.149125</ele>
        <time>2023-07-15T17:24:55.000Z</time>
      </trkpt>
      <trkpt lat="37.923559" lon="22.291214">
        <ele>893.053753</ele>
        <time>2023-07-15T17:24:57.000Z</time>
      </trkpt>
      <trkpt lat="37.923873" lon="22.292073">
        <ele>892.687859</ele>
        <time>2023-07-15T17:25:05.000Z</time>
      </trkpt>
      <trkpt lat="37.923896" lon="22.292289">
        <ele>892.608549</ele>
        <time>2023-07-15T17:25:07.000Z</time>
      </trkpt>
      <trkpt lat="37.923905" lon="22.292463">
        <ele>892.543229</ele>
        <time>2023-07-15T17:25:09.000Z</time>
      </trkpt>
      <trkpt lat="37.923819" lon="22.292644">
        <ele>892.273962</ele>
        <time>2023-07-15T17:25:11.000Z</time>
      </trkpt>
      <trkpt lat="37.923779" lon="22.292718">
        <ele>892.153855</ele>
        <time>2023-07-15T17:25:12.000Z</time>
      </trkpt>
      <trkpt lat="37.9236" lon="22.292996">
        <ele>891.536462</ele>
        <time>2023-07-15T17:25:15.000Z</time>
      </trkpt>
      <trkpt lat="37.923273" lon="22.293481">
        <ele>890.482983</ele>
        <time>2023-07-15T17:25:21.000Z</time>
      </trkpt>
      <trkpt lat="37.923262" lon="22.293637">
        <ele>890.216535</ele>
        <time>2023-07-15T17:25:22.000Z</time>
      </trkpt>
      <trkpt lat="37.923322" lon="22.29364">
        <ele>890.068796</ele>
        <time>2023-07-15T17:25:23.000Z</time>
      </trkpt>
      <trkpt lat="37.923529" lon="22.293547">
        <ele>889.601838</ele>
        <time>2023-07-15T17:25:25.000Z</time>
      </trkpt>
      <trkpt lat="37.924056" lon="22.29314">
        <ele>888.553752</ele>
        <time>2023-07-15T17:25:32.000Z</time>
      </trkpt>
      <trkpt lat="37.924355" lon="22.292987">
        <ele>888.255612</ele>
        <time>2023-07-15T17:25:36.000Z</time>
      </trkpt>
      <trkpt lat="37.925014" lon="22.292819">
        <ele>887.652947</ele>
        <time>2023-07-15T17:25:43.000Z</time>
      </trkpt>
      <trkpt lat="37.925491" lon="22.292778">
        <ele>887.216968</ele>
        <time>2023-07-15T17:25:48.000Z</time>
      </trkpt>
      <trkpt lat="37.926504" lon="22.292307">
        <ele>888.201779</ele>
        <time>2023-07-15T17:26:00.000Z</time>
      </trkpt>
      <trkpt lat="37.926604" lon="22.29223">
        <ele>888.337432</ele>
        <time>2023-07-15T17:26:01.000Z</time>
      </trkpt>
      <trkpt lat="37.927101" lon="22.291715">
        <ele>889.095001</ele>
        <time>2023-07-15T17:26:08.000Z</time>
      </trkpt>
      <trkpt lat="37.927288" lon="22.291532">
        <ele>889.386556</ele>
        <time>2023-07-15T17:26:11.000Z</time>
      </trkpt>
      <trkpt lat="37.927352" lon="22.291478">
        <ele>889.485471</ele>
        <time>2023-07-15T17:26:12.000Z</time>
      </trkpt>
      <trkpt lat="37.927425" lon="22.291456">
        <ele>889.607855</ele>
        <time>2023-07-15T17:26:13.000Z</time>
      </trkpt>
      <trkpt lat="37.927727" lon="22.291368">
        <ele>890.034282</ele>
        <time>2023-07-15T17:26:16.000Z</time>
      </trkpt>
      <trkpt lat="37.927897" lon="22.291325">
        <ele>890.269385</ele>
        <time>2023-07-15T17:26:18.000Z</time>
      </trkpt>
      <trkpt lat="37.927909" lon="22.291328">
        <ele>890.290498</ele>
        <time>2023-07-15T17:26:18.000Z</time>
      </trkpt>
      <trkpt lat="37.928228" lon="22.291243">
        <ele>890.743655</ele>
        <time>2023-07-15T17:26:22.000Z</time>
      </trkpt>
      <trkpt lat="37.928358" lon="22.291217">
        <ele>890.902872</ele>
        <time>2023-07-15T17:26:23.000Z</time>
      </trkpt>
      <trkpt lat="37.928407" lon="22.291196">
        <ele>890.984386</ele>
        <time>2023-07-15T17:26:24.000Z</time>
      </trkpt>
      <trkpt lat="37.928568" lon="22.291055">
        <ele>891.256734</ele>
        <time>2023-07-15T17:26:26.000Z</time>
      </trkpt>
      <trkpt lat="37.928656" lon="22.29098">
        <ele>891.384737</ele>
        <time>2023-07-15T17:26:27.000Z</time>
      </trkpt>
      <trkpt lat="37.929239" lon="22.290474">
        <ele>891.369894</ele>
        <time>2023-07-15T17:26:35.000Z</time>
      </trkpt>
      <trkpt lat="37.929573" lon="22.290275">
        <ele>891.143859</ele>
        <time>2023-07-15T17:26:39.000Z</time>
      </trkpt>
      <trkpt lat="37.929584" lon="22.290273">
        <ele>891.136016</ele>
        <time>2023-07-15T17:26:39.000Z</time>
      </trkpt>
      <trkpt lat="37.929607" lon="22.290239">
        <ele>891.113566</ele>
        <time>2023-07-15T17:26:39.000Z</time>
      </trkpt>
      <trkpt lat="37.929672" lon="22.290237">
        <ele>891.074561</ele>
        <time>2023-07-15T17:26:40.000Z</time>
      </trkpt>
      <trkpt lat="37.929906" lon="22.290221">
        <ele>890.935043</ele>
        <time>2023-07-15T17:26:43.000Z</time>
      </trkpt>
      <trkpt lat="37.930004" lon="22.290213">
        <ele>890.879015</ele>
        <time>2023-07-15T17:26:44.000Z</time>
      </trkpt>
      <trkpt lat="37.930242" lon="22.290195">
        <ele>890.727077</ele>
        <time>2023-07-15T17:26:47.000Z</time>
      </trkpt>
      <trkpt lat="37.93036" lon="22.290191">
        <ele>890.65875</ele>
        <time>2023-07-15T17:26:48.000Z</time>
      </trkpt>
      <trkpt lat="37.93191" lon="22.289003">
        <ele>884.125861</ele>
        <time>2023-07-15T17:27:08.000Z</time>
      </trkpt>
      <trkpt lat="37.932245" lon="22.288738">
        <ele>882.924332</ele>
        <time>2023-07-15T17:27:12.000Z</time>
      </trkpt>
      <trkpt lat="37.932169" lon="22.288524">
        <ele>882.448489</ele>
        <time>2023-07-15T17:27:14.000Z</time>
      </trkpt>
      <trkpt lat="37.932108" lon="22.288395">
        <ele>882.132846</ele>
        <time>2023-07-15T17:27:15.000Z</time>
      </trkpt>
      <trkpt lat="37.931793" lon="22.287846">
        <ele>880.742853</ele>
        <time>2023-07-15T17:27:21.000Z</time>
      </trkpt>
      <trkpt lat="37.931533" lon="22.287079">
        <ele>879.054798</ele>
        <time>2023-07-15T17:27:28.000Z</time>
      </trkpt>
      <trkpt lat="37.931386" lon="22.286597">
        <ele>878.871933</ele>
        <time>2023-07-15T17:27:33.000Z</time>
      </trkpt>
      <trkpt lat="37.931364" lon="22.28653">
        <ele>878.849768</ele>
        <time>2023-07-15T17:27:34.000Z</time>
      </trkpt>
      <trkpt lat="37.93133" lon="22.286324">
        <ele>878.802714</ele>
        <time>2023-07-15T17:27:36.000Z</time>
      </trkpt>
      <trkpt lat="37.931319" lon="22.286222">
        <ele>878.779171</ele>
        <time>2023-07-15T17:27:37.000Z</time>
      </trkpt>
      <trkpt lat="37.931318" lon="22.28612">
        <ele>878.750773</ele>
        <time>2023-07-15T17:27:38.000Z</time>
      </trkpt>
      <trkpt lat="37.931293" lon="22.285887">
        <ele>878.697898</ele>
        <time>2023-07-15T17:27:40.000Z</time>
      </trkpt>
      <trkpt lat="37.931291" lon="22.285424">
        <ele>878.585742</ele>
        <time>2023-07-15T17:27:44.000Z</time>
      </trkpt>
      <trkpt lat="37.931385" lon="22.285082">
        <ele>878.495263</ele>
        <time>2023-07-15T17:27:47.000Z</time>
      </trkpt>
      <trkpt lat="37.931456" lon="22.284983">
        <ele>878.466728</ele>
        <time>2023-07-15T17:27:48.000Z</time>
      </trkpt>
      <trkpt lat="37.931701" lon="22.284678">
        <ele>878.11311</ele>
        <time>2023-07-15T17:27:52.000Z</time>
      </trkpt>
      <trkpt lat="37.93173" lon="22.284594">
        <ele>878.002006</ele>
        <time>2023-07-15T17:27:53.000Z</time>
      </trkpt>
      <trkpt lat="37.931746" lon="22.284541">
        <ele>877.942658</ele>
        <time>2023-07-15T17:27:53.000Z</time>
      </trkpt>
      <trkpt lat="37.931736" lon="22.284486">
        <ele>877.881253</ele>
        <time>2023-07-15T17:27:53.000Z</time>
      </trkpt>
      <trkpt lat="37.931729" lon="22.284353">
        <ele>877.760433</ele>
        <time>2023-07-15T17:27:54.000Z</time>
      </trkpt>
      <trkpt lat="37.931731" lon="22.284327">
        <ele>877.718903</ele>
        <time>2023-07-15T17:27:54.000Z</time>
      </trkpt>
      <trkpt lat="37.931713" lon="22.284299">
        <ele>877.699027</ele>
        <time>2023-07-15T17:27:54.000Z</time>
      </trkpt>
      <trkpt lat="37.931609" lon="22.28412">
        <ele>877.460924</ele>
        <time>2023-07-15T17:27:56.000Z</time>
      </trkpt>
      <trkpt lat="37.931522" lon="22.284033">
        <ele>877.311351</ele>
        <time>2023-07-15T17:27:57.000Z</time>
      </trkpt>
      <trkpt lat="37.931347" lon="22.283757">
        <ele>876.950143</ele>
        <time>2023-07-15T17:28:00.000Z</time>
      </trkpt>
      <trkpt lat="37.931291" lon="22.283497">
        <ele>876.675197</ele>
        <time>2023-07-15T17:28:02.000Z</time>
      </trkpt>
      <trkpt lat="37.93124" lon="22.282944">
        <ele>876.099197</ele>
        <time>2023-07-15T17:28:07.000Z</time>
      </trkpt>
      <trkpt lat="37.931123" lon="22.281682">
        <ele>875.776512</ele>
        <time>2023-07-15T17:28:18.000Z</time>
      </trkpt>
      <trkpt lat="37.931043" lon="22.281357">
        <ele>875.687847</ele>
        <time>2023-07-15T17:28:21.000Z</time>
      </trkpt>
      <trkpt lat="37.930488" lon="22.280594">
        <ele>875.955985</ele>
        <time>2023-07-15T17:28:30.000Z</time>
      </trkpt>
      <trkpt lat="37.93033" lon="22.280427">
        <ele>876.269858</ele>
        <time>2023-07-15T17:28:32.000Z</time>
      </trkpt>
      <trkpt lat="37.93025" lon="22.2803">
        <ele>876.465955</ele>
        <time>2023-07-15T17:28:33.000Z</time>
      </trkpt>
      <trkpt lat="37.929989" lon="22.279869">
        <ele>877.124799</ele>
        <time>2023-07-15T17:28:38.000Z</time>
      </trkpt>
      <trkpt lat="37.929987" lon="22.279846">
        <ele>877.149597</ele>
        <time>2023-07-15T17:28:38.000Z</time>
      </trkpt>
      <trkpt lat="37.92998" lon="22.279826">
        <ele>877.177885</ele>
        <time>2023-07-15T17:28:38.000Z</time>
      </trkpt>
      <trkpt lat="37.929882" lon="22.279602">
        <ele>877.481534</ele>
        <time>2023-07-15T17:28:40.000Z</time>
      </trkpt>
      <trkpt lat="37.929801" lon="22.279342">
        <ele>877.819409</ele>
        <time>2023-07-15T17:28:42.000Z</time>
      </trkpt>
      <trkpt lat="37.929689" lon="22.279209">
        <ele>878.062026</ele>
        <time>2023-07-15T17:28:44.000Z</time>
      </trkpt>
      <trkpt lat="37.929581" lon="22.279075">
        <ele>878.300293</ele>
        <time>2023-07-15T17:28:46.000Z</time>
      </trkpt>
      <trkpt lat="37.929589" lon="22.279063">
        <ele>878.330992</ele>
        <time>2023-07-15T17:28:46.000Z</time>
      </trkpt>
      <trkpt lat="37.929498" lon="22.279048">
        <ele>878.603433</ele>
        <time>2023-07-15T17:28:47.000Z</time>
      </trkpt>
      <trkpt lat="37.92942" lon="22.279034">
        <ele>878.826153</ele>
        <time>2023-07-15T17:28:48.000Z</time>
      </trkpt>
      <trkpt lat="37.929392" lon="22.279049">
        <ele>878.912369</ele>
        <time>2023-07-15T17:28:48.000Z</time>
      </trkpt>
      <trkpt lat="37.929382" lon="22.279049">
        <ele>878.940185</ele>
        <time>2023-07-15T17:28:48.000Z</time>
      </trkpt>
      <trkpt lat="37.929022" lon="22.279073">
        <ele>880.062335</ele>
        <time>2023-07-15T17:28:52.000Z</time>
      </trkpt>
      <trkpt lat="37.928679" lon="22.279104">
        <ele>881.111481</ele>
        <time>2023-07-15T17:28:56.000Z</time>
      </trkpt>
      <trkpt lat="37.928417" lon="22.279112">
        <ele>881.944504</ele>
        <time>2023-07-15T17:28:59.000Z</time>
      </trkpt>
      <trkpt lat="37.928371" lon="22.279119">
        <ele>882.046346</ele>
        <time>2023-07-15T17:29:00.000Z</time>
      </trkpt>
      <trkpt lat="37.928359" lon="22.27912">
        <ele>882.101803</ele>
        <time>2023-07-15T17:29:00.000Z</time>
      </trkpt>
      <trkpt lat="37.928281" lon="22.279149">
        <ele>882.372522</ele>
        <time>2023-07-15T17:29:01.000Z</time>
      </trkpt>
      <trkpt lat="37.928142" lon="22.279216">
        <ele>882.811213</ele>
        <time>2023-07-15T17:29:03.000Z</time>
      </trkpt>
      <trkpt lat="37.928035" lon="22.279247">
        <ele>883.165561</ele>
        <time>2023-07-15T17:29:04.000Z</time>
      </trkpt>
      <trkpt lat="37.927905" lon="22.279384">
        <ele>883.657715</ele>
        <time>2023-07-15T17:29:06.000Z</time>
      </trkpt>
      <trkpt lat="37.927781" lon="22.279558">
        <ele>884.567028</ele>
        <time>2023-07-15T17:29:08.000Z</time>
      </trkpt>
      <trkpt lat="37.927741" lon="22.27961">
        <ele>884.952111</ele>
        <time>2023-07-15T17:29:09.000Z</time>
      </trkpt>
      <trkpt lat="37.9277" lon="22.27966">
        <ele>885.219551</ele>
        <time>2023-07-15T17:29:10.000Z</time>
      </trkpt>
      <trkpt lat="37.92764" lon="22.27974">
        <ele>885.743926</ele>
        <time>2023-07-15T17:29:11.000Z</time>
      </trkpt>
      <trkpt lat="37.927278" lon="22.280241">
        <ele>888.853359</ele>
        <time>2023-07-15T17:29:17.000Z</time>
      </trkpt>
      <trkpt lat="37.927229" lon="22.280296">
        <ele>889.149746</ele>
        <time>2023-07-15T17:29:18.000Z</time>
      </trkpt>
      <trkpt lat="37.927066" lon="22.280503">
        <ele>890.493093</ele>
        <time>2023-07-15T17:29:21.000Z</time>
      </trkpt>
      <trkpt lat="37.926985" lon="22.280613">
        <ele>891.250934</ele>
        <time>2023-07-15T17:29:22.000Z</time>
      </trkpt>
      <trkpt lat="37.926726" lon="22.281002">
        <ele>893.513442</ele>
        <time>2023-07-15T17:29:26.000Z</time>
      </trkpt>
      <trkpt lat="37.92668" lon="22.281042">
        <ele>893.819008</ele>
        <time>2023-07-15T17:29:27.000Z</time>
      </trkpt>
      <trkpt lat="37.926626" lon="22.281145">
        <ele>894.260449</ele>
        <time>2023-07-15T17:29:28.000Z</time>
      </trkpt>
      <trkpt lat="37.926541" lon="22.281329">
        <ele>894.810811</ele>
        <time>2023-07-15T17:29:30.000Z</time>
      </trkpt>
      <trkpt lat="37.926509" lon="22.281525">
        <ele>895.299208</ele>
        <time>2023-07-15T17:29:32.000Z</time>
      </trkpt>
      <trkpt lat="37.926542" lon="22.281786">
        <ele>895.944319</ele>
        <time>2023-07-15T17:29:34.000Z</time>
      </trkpt>
      <trkpt lat="37.92661" lon="22.281965">
        <ele>896.450956</ele>
        <time>2023-07-15T17:29:36.000Z</time>
      </trkpt>
      <trkpt lat="37.926872" lon="22.282637">
        <ele>898.311921</ele>
        <time>2023-07-15T17:29:43.000Z</time>
      </trkpt>
      <trkpt lat="37.926814" lon="22.282925">
        <ele>899.049218</ele>
        <time>2023-07-15T17:29:46.000Z</time>
      </trkpt>
      <trkpt lat="37.926636" lon="22.283266">
        <ele>899.816566</ele>
        <time>2023-07-15T17:29:50.000Z</time>
      </trkpt>
      <trkpt lat="37.926617" lon="22.283781">
        <ele>899.79586</ele>
        <time>2023-07-15T17:29:55.000Z</time>
      </trkpt>
      <trkpt lat="37.926567" lon="22.283997">
        <ele>899.786207</ele>
        <time>2023-07-15T17:29:57.000Z</time>
      </trkpt>
      <trkpt lat="37.926495" lon="22.284135">
        <ele>899.779926</ele>
        <time>2023-07-15T17:29:58.000Z</time>
      </trkpt>
      <trkpt lat="37.926192" lon="22.284316">
        <ele>899.763084</ele>
        <time>2023-07-15T17:30:02.000Z</time>
      </trkpt>
      <trkpt lat="37.926064" lon="22.284845">
        <ele>899.741281</ele>
        <time>2023-07-15T17:30:07.000Z</time>
      </trkpt>
      <trkpt lat="37.925752" lon="22.285296">
        <ele>899.500021</ele>
        <time>2023-07-15T17:30:12.000Z</time>
      </trkpt>
      <trkpt lat="37.925259" lon="22.285486">
        <ele>899.003159</ele>
        <time>2023-07-15T17:30:18.000Z</time>
      </trkpt>
      <trkpt lat="37.924998" lon="22.285666">
        <ele>898.711019</ele>
        <time>2023-07-15T17:30:21.000Z</time>
      </trkpt>
      <trkpt lat="37.924954" lon="22.28586">
        <ele>898.553977</ele>
        <time>2023-07-15T17:30:23.000Z</time>
      </trkpt>
      <trkpt lat="37.925058" lon="22.286038">
        <ele>898.394187</ele>
        <time>2023-07-15T17:30:25.000Z</time>
      </trkpt>
      <trkpt lat="37.925285" lon="22.286197">
        <ele>898.136866</ele>
        <time>2023-07-15T17:30:28.000Z</time>
      </trkpt>
      <trkpt lat="37.925629" lon="22.286357">
        <ele>897.392957</ele>
        <time>2023-07-15T17:30:32.000Z</time>
      </trkpt>
      <trkpt lat="37.926025" lon="22.286302">
        <ele>896.267809</ele>
        <time>2023-07-15T17:30:36.000Z</time>
      </trkpt>
      <trkpt lat="37.926484" lon="22.286155">
        <ele>894.953584</ele>
        <time>2023-07-15T17:30:41.000Z</time>
      </trkpt>
      <trkpt lat="37.926546" lon="22.286114">
        <ele>894.746255</ele>
        <time>2023-07-15T17:30:42.000Z</time>
      </trkpt>
      <trkpt lat="37.92684" lon="22.286101">
        <ele>893.911383</ele>
        <time>2023-07-15T17:30:45.000Z</time>
      </trkpt>
      <trkpt lat="37.927144" lon="22.286067">
        <ele>893.085084</ele>
        <time>2023-07-15T17:30:48.000Z</time>
      </trkpt>
      <trkpt lat="37.927297" lon="22.28612">
        <ele>892.987352</ele>
        <time>2023-07-15T17:30:50.000Z</time>
      </trkpt>
      <trkpt lat="37.927318" lon="22.286158">
        <ele>893.011472</ele>
        <time>2023-07-15T17:30:50.000Z</time>
      </trkpt>
      <trkpt lat="37.927377" lon="22.286278">
        <ele>893.077891</ele>
        <time>2023-07-15T17:30:51.000Z</time>
      </trkpt>
      <trkpt lat="37.927355" lon="22.286408">
        <ele>893.147107</ele>
        <time>2023-07-15T17:30:52.000Z</time>
      </trkpt>
      <trkpt lat="37.927358" lon="22.286474">
        <ele>893.177138</ele>
        <time>2023-07-15T17:30:53.000Z</time>
      </trkpt>
      <trkpt lat="37.927061" lon="22.286884">
        <ele>893.459643</ele>
        <time>2023-07-15T17:30:58.000Z</time>
      </trkpt>
      <trkpt lat="37.927022" lon="22.286959">
        <ele>893.501199</ele>
        <time>2023-07-15T17:30:59.000Z</time>
      </trkpt>
      <trkpt lat="37.926685" lon="22.287196">
        <ele>893.753385</ele>
        <time>2023-07-15T17:31:03.000Z</time>
      </trkpt>
      <trkpt lat="37.926447" lon="22.287496">
        <ele>893.964689</ele>
        <time>2023-07-15T17:31:07.000Z</time>
      </trkpt>
      <trkpt lat="37.926278" lon="22.287629">
        <ele>894.089896</ele>
        <time>2023-07-15T17:31:09.000Z</time>
      </trkpt>
      <trkpt lat="37.926097" lon="22.287648">
        <ele>894.276617</ele>
        <time>2023-07-15T17:31:11.000Z</time>
      </trkpt>
      <trkpt lat="37.925882" lon="22.287557">
        <ele>894.505172</ele>
        <time>2023-07-15T17:31:14.000Z</time>
      </trkpt>
      <trkpt lat="37.925672" lon="22.287618">
        <ele>894.71527</ele>
        <time>2023-07-15T17:31:16.000Z</time>
      </trkpt>
      <trkpt lat="37.925439" lon="22.287814">
        <ele>894.99715</ele>
        <time>2023-07-15T17:31:19.000Z</time>
      </trkpt>
      <trkpt lat="37.925385" lon="22.288059">
        <ele>895.203024</ele>
        <time>2023-07-15T17:31:21.000Z</time>
      </trkpt>
      <trkpt lat="37.925389" lon="22.288272">
        <ele>895.364821</ele>
        <time>2023-07-15T17:31:23.000Z</time>
      </trkpt>
      <trkpt lat="37.92549" lon="22.288402">
        <ele>895.517846</ele>
        <time>2023-07-15T17:31:25.000Z</time>
      </trkpt>
      <trkpt lat="37.925638" lon="22.288758">
        <ele>895.833811</ele>
        <time>2023-07-15T17:31:29.000Z</time>
      </trkpt>
      <trkpt lat="37.92568" lon="22.28925">
        <ele>895.451206</ele>
        <time>2023-07-15T17:31:33.000Z</time>
      </trkpt>
      <trkpt lat="37.925585" lon="22.289513">
        <ele>895.170729</ele>
        <time>2023-07-15T17:31:36.000Z</time>
      </trkpt>
      <trkpt lat="37.924889" lon="22.290201">
        <ele>894.097847</ele>
        <time>2023-07-15T17:31:46.000Z</time>
      </trkpt>
      <trkpt lat="37.924025" lon="22.290591">
        <ele>893.4978</ele>
        <time>2023-07-15T17:31:56.000Z</time>
      </trkpt>
      <trkpt lat="37.923683" lon="22.290802">
        <ele>893.382883</ele>
        <time>2023-07-15T17:32:00.000Z</time>
      </trkpt>
      <trkpt lat="37.923583" lon="22.290971">
        <ele>893.334081</ele>
        <time>2023-07-15T17:32:02.000Z</time>
      </trkpt>
      <trkpt lat="37.923566" lon="22.291208">
        <ele>893.27462</ele>
        <time>2023-07-15T17:32:04.000Z</time>
      </trkpt>
      <trkpt lat="37.923875" lon="22.292071">
        <ele>892.700955</ele>
        <time>2023-07-15T17:32:12.000Z</time>
      </trkpt>
      <trkpt lat="37.923882" lon="22.29228">
        <ele>892.43046</ele>
        <time>2023-07-15T17:32:14.000Z</time>
      </trkpt>
      <trkpt lat="37.923903" lon="22.292445">
        <ele>892.207618</ele>
        <time>2023-07-15T17:32:15.000Z</time>
      </trkpt>
      <trkpt lat="37.923807" lon="22.292651">
        <ele>891.909047</ele>
        <time>2023-07-15T17:32:17.000Z</time>
      </trkpt>
      <trkpt lat="37.923794" lon="22.29271">
        <ele>891.814158</ele>
        <time>2023-07-15T17:32:18.000Z</time>
      </trkpt>
      <trkpt lat="37.923599" lon="22.293">
        <ele>891.326388</ele>
        <time>2023-07-15T17:32:21.000Z</time>
      </trkpt>
      <trkpt lat="37.923265" lon="22.293486">
        <ele>890.494096</ele>
        <time>2023-07-15T17:32:27.000Z</time>
      </trkpt>
      <trkpt lat="37.923262" lon="22.29363">
        <ele>890.283584</ele>
        <time>2023-07-15T17:32:28.000Z</time>
      </trkpt>
      <trkpt lat="37.923322" lon="22.293625">
        <ele>890.166862</ele>
        <time>2023-07-15T17:32:29.000Z</time>
      </trkpt>
      <trkpt lat="37.923532" lon="22.293539">
        <ele>889.790322</ele>
        <time>2023-07-15T17:32:31.000Z</time>
      </trkpt>
      <trkpt lat="37.924055" lon="22.293133">
        <ele>888.761143</ele>
        <time>2023-07-15T17:32:38.000Z</time>
      </trkpt>
      <trkpt lat="37.924368" lon="22.292986">
        <ele>888.199225</ele>
        <time>2023-07-15T17:32:42.000Z</time>
      </trkpt>
      <trkpt lat="37.925018" lon="22.292815">
        <ele>887.073935</ele>
        <time>2023-07-15T17:32:49.000Z</time>
      </trkpt>
      <trkpt lat="37.925502" lon="22.29278">
        <ele>887.401185</ele>
        <time>2023-07-15T17:32:54.000Z</time>
      </trkpt>
      <trkpt lat="37.926517" lon="22.292305">
        <ele>888.1309</ele>
        <time>2023-07-15T17:33:06.000Z</time>
      </trkpt>
      <trkpt lat="37.926601" lon="22.292226">
        <ele>888.209776</ele>
        <time>2023-07-15T17:33:07.000Z</time>
      </trkpt>
      <trkpt lat="37.927101" lon="22.291703">
        <ele>889.084241</ele>
        <time>2023-07-15T17:33:14.000Z</time>
      </trkpt>
      <trkpt lat="37.927293" lon="22.291539">
        <ele>889.420203</ele>
        <time>2023-07-15T17:33:17.000Z</time>
      </trkpt>
      <trkpt lat="37.927336" lon="22.291485">
        <ele>889.527467</ele>
        <time>2023-07-15T17:33:18.000Z</time>
      </trkpt>
      <trkpt lat="37.927426" lon="22.291446">
        <ele>889.660213</ele>
        <time>2023-07-15T17:33:19.000Z</time>
      </trkpt>
      <trkpt lat="37.927741" lon="22.291376">
        <ele>890.122724</ele>
        <time>2023-07-15T17:33:23.000Z</time>
      </trkpt>
      <trkpt lat="37.9279" lon="22.291327">
        <ele>890.377712</ele>
        <time>2023-07-15T17:33:25.000Z</time>
      </trkpt>
      <trkpt lat="37.927911" lon="22.291333">
        <ele>890.400606</ele>
        <time>2023-07-15T17:33:25.000Z</time>
      </trkpt>
      <trkpt lat="37.92823" lon="22.291241">
        <ele>890.892097</ele>
        <time>2023-07-15T17:33:29.000Z</time>
      </trkpt>
      <trkpt lat="37.928348" lon="22.291209">
        <ele>891.003407</ele>
        <time>2023-07-15T17:33:30.000Z</time>
      </trkpt>
      <trkpt lat="37.928413" lon="22.291186">
        <ele>891.030472</ele>
        <time>2023-07-15T17:33:31.000Z</time>
      </trkpt>
      <trkpt lat="37.928577" lon="22.291044">
        <ele>891.120919</ele>
        <time>2023-07-15T17:33:33.000Z</time>
      </trkpt>
      <trkpt lat="37.928652" lon="22.290993">
        <ele>891.16344</ele>
        <time>2023-07-15T17:33:34.000Z</time>
      </trkpt>
      <trkpt lat="37.929235" lon="22.29047">
        <ele>891.486171</ele>
        <time>2023-07-15T17:33:42.000Z</time>
      </trkpt>
      <trkpt lat="37.929572" lon="22.290272">
        <ele>891.656129</ele>
        <time>2023-07-15T17:33:46.000Z</time>
      </trkpt>
      <trkpt lat="37.929578" lon="22.290264">
        <ele>891.662021</ele>
        <time>2023-07-15T17:33:46.000Z</time>
      </trkpt>
      <trkpt lat="37.92961" lon="22.290253">
        <ele>891.678915</ele>
        <time>2023-07-15T17:33:46.000Z</time>
      </trkpt>
      <trkpt lat="37.92968" lon="22.290235">
        <ele>891.708238</ele>
        <time>2023-07-15T17:33:47.000Z</time>
      </trkpt>
      <trkpt lat="37.929897" lon="22.29022">
        <ele>891.701864</ele>
        <time>2023-07-15T17:33:49.000Z</time>
      </trkpt>
      <trkpt lat="37.929997" lon="22.290222">
        <ele>891.415234</ele>
        <time>2023-07-15T17:33:50.000Z</time>
      </trkpt>
      <trkpt lat="37.930236" lon="22.290191">
        <ele>890.637823</ele>
        <time>2023-07-15T17:33:53.000Z</time>
      </trkpt>
      <trkpt lat="37.930352" lon="22.290176">
        <ele>890.288289</ele>
        <time>2023-07-15T17:33:54.000Z</time>
      </trkpt>
      <trkpt lat="37.931906" lon="22.289004">
        <ele>884.436223</ele>
        <time>2023-07-15T17:34:14.000Z</time>
      </trkpt>
      <trkpt lat="37.932251" lon="22.288734">
        <ele>882.997999</ele>
        <time>2023-07-15T17:34:19.000Z</time>
      </trkpt>
      <trkpt lat="37.932172" lon="22.28852">
        <ele>882.345974</ele>
        <time>2023-07-15T17:34:21.000Z</time>
      </trkpt>
      <trkpt lat="37.932099" lon="22.288386">
        <ele>881.913482</ele>
        <time>2023-07-15T17:34:22.000Z</time>
      </trkpt>
      <trkpt lat="37.9318" lon="22.287839">
        <ele>880.008856</ele>
        <time>2023-07-15T17:34:28.000Z</time>
      </trkpt>
      <trkpt lat="37.931537" lon="22.28708">
        <ele>879.471659</ele>
        <time>2023-07-15T17:34:35.000Z</time>
      </trkpt>
      <trkpt lat="37.931376" lon="22.286607">
        <ele>879.24404</ele>
        <time>2023-07-15T17:34:40.000Z</time>
      </trkpt>
      <trkpt lat="37.931354" lon="22.286515">
        <ele>879.203392</ele>
        <time>2023-07-15T17:34:41.000Z</time>
      </trkpt>
      <trkpt lat="37.931333" lon="22.286323">
        <ele>879.117153</ele>
        <time>2023-07-15T17:34:43.000Z</time>
      </trkpt>
      <trkpt lat="37.931323" lon="22.286232">
        <ele>879.073997</ele>
        <time>2023-07-15T17:34:44.000Z</time>
      </trkpt>
      <trkpt lat="37.931313" lon="22.286106">
        <ele>879.021942</ele>
        <time>2023-07-15T17:34:45.000Z</time>
      </trkpt>
      <trkpt lat="37.931292" lon="22.285898">
        <ele>878.924973</ele>
        <time>2023-07-15T17:34:47.000Z</time>
      </trkpt>
      <trkpt lat="37.93129" lon="22.285438">
        <ele>878.654801</ele>
        <time>2023-07-15T17:34:51.000Z</time>
      </trkpt>
      <trkpt lat="37.931381" lon="22.285068">
        <ele>878.350709</ele>
        <time>2023-07-15T17:34:54.000Z</time>
      </trkpt>
      <trkpt lat="37.93146" lon="22.284995">
        <ele>878.254796</ele>
        <time>2023-07-15T17:34:55.000Z</time>
      </trkpt>
      <trkpt lat="37.931688" lon="22.284676">
        <ele>877.905891</ele>
        <time>2023-07-15T17:34:59.000Z</time>
      </trkpt>
      <trkpt lat="37.931735" lon="22.284581">
        <ele>877.818277</ele>
        <time>2023-07-15T17:35:00.000Z</time>
      </trkpt>
      <trkpt lat="37.93175" lon="22.284538">
        <ele>877.771484</ele>
        <time>2023-07-15T17:35:00.000Z</time>
      </trkpt>
      <trkpt lat="37.931747" lon="22.284485">
        <ele>877.723065</ele>
        <time>2023-07-15T17:35:00.000Z</time>
      </trkpt>
      <trkpt lat="37.931724" lon="22.284357">
        <ele>877.627803</ele>
        <time>2023-07-15T17:35:01.000Z</time>
      </trkpt>
      <trkpt lat="37.931715" lon="22.284326">
        <ele>877.595047</ele>
        <time>2023-07-15T17:35:01.000Z</time>
      </trkpt>
      <trkpt lat="37.931725" lon="22.284297">
        <ele>877.579367</ele>
        <time>2023-07-15T17:35:01.000Z</time>
      </trkpt>
      <trkpt lat="37.931608" lon="22.284118">
        <ele>877.391632</ele>
        <time>2023-07-15T17:35:03.000Z</time>
      </trkpt>
      <trkpt lat="37.931523" lon="22.284046">
        <ele>877.273697</ele>
        <time>2023-07-15T17:35:04.000Z</time>
      </trkpt>
      <trkpt lat="37.931359" lon="22.283754">
        <ele>876.988896</ele>
        <time>2023-07-15T17:35:07.000Z</time>
      </trkpt>
      <trkpt lat="37.931289" lon="22.2835">
        <ele>876.787618</ele>
        <time>2023-07-15T17:35:09.000Z</time>
      </trkpt>
      <trkpt lat="37.931225" lon="22.282933">
        <ele>876.370441</ele>
        <time>2023-07-15T17:35:14.000Z</time>
      </trkpt>
      <trkpt lat="37.931124" lon="22.281694">
        <ele>875.443735</ele>
        <time>2023-07-15T17:35:25.000Z</time>
      </trkpt>
      <trkpt lat="37.931027" lon="22.281361">
        <ele>875.348565</ele>
        <time>2023-07-15T17:35:28.000Z</time>
      </trkpt>
      <trkpt lat="37.93049" lon="22.280594">
        <ele>876.164559</ele>
        <time>2023-07-15T17:35:37.000Z</time>
      </trkpt>
      <trkpt lat="37.930322" lon="22.280431">
        <ele>876.366959</ele>
        <time>2023-07-15T17:35:39.000Z</time>
      </trkpt>
      <trkpt lat="37.930236" lon="22.280297">
        <ele>876.493424</ele>
        <time>2023-07-15T17:35:41.000Z</time>
      </trkpt>
      <trkpt lat="37.929981" lon="22.279865">
        <ele>876.918264</ele>
        <time>2023-07-15T17:35:46.000Z</time>
      </trkpt>
      <trkpt lat="37.929979" lon="22.279843">
        <ele>876.934263</ele>
        <time>2023-07-15T17:35:46.000Z</time>
      </trkpt>
      <trkpt lat="37.929977" lon="22.279835">
        <ele>876.952487</ele>
        <time>2023-07-15T17:35:46.000Z</time>
      </trkpt>
      <trkpt lat="37.929896" lon="22.279609">
        <ele>877.287526</ele>
        <time>2023-07-15T17:35:48.000Z</time>
      </trkpt>
      <trkpt lat="37.92981" lon="22.279353">
        <ele>877.812173</ele>
        <time>2023-07-15T17:35:50.000Z</time>
      </trkpt>
      <trkpt lat="37.9297" lon="22.279202">
        <ele>878.188924</ele>
        <time>2023-07-15T17:35:52.000Z</time>
      </trkpt>
      <trkpt lat="37.929589" lon="22.27907">
        <ele>878.541497</ele>
        <time>2023-07-15T17:35:54.000Z</time>
      </trkpt>
      <trkpt lat="37.929575" lon="22.279061">
        <ele>878.565303</ele>
        <time>2023-07-15T17:35:54.000Z</time>
      </trkpt>
      <trkpt lat="37.929503" lon="22.279057">
        <ele>878.776549</ele>
        <time>2023-07-15T17:35:55.000Z</time>
      </trkpt>
      <trkpt lat="37.929425" lon="22.279049">
        <ele>878.949241</ele>
        <time>2023-07-15T17:35:56.000Z</time>
      </trkpt>
      <trkpt lat="37.929395" lon="22.279036">
        <ele>879.016104</ele>
        <time>2023-07-15T17:35:56.000Z</time>
      </trkpt>
      <trkpt lat="37.929381" lon="22.279047">
        <ele>879.037669</ele>
        <time>2023-07-15T17:35:56.000Z</time>
      </trkpt>
      <trkpt lat="37.929028" lon="22.279068">
        <ele>879.907757</ele>
        <time>2023-07-15T17:36:00.000Z</time>
      </trkpt>
      <trkpt lat="37.928691" lon="22.279094">
        <ele>880.721252</ele>
        <time>2023-07-15T17:36:04.000Z</time>
      </trkpt>
      <trkpt lat="37.928418" lon="22.279111">
        <ele>881.395305</ele>
        <time>2023-07-15T17:36:07.000Z</time>
      </trkpt>
      <trkpt lat="37.928388" lon="22.27913">
        <ele>881.5646</ele>
        <time>2023-07-15T17:36:07.000Z</time>
      </trkpt>
      <trkpt lat="37.928366" lon="22.27912">
        <ele>881.65678</ele>
        <time>2023-07-15T17:36:07.000Z</time>
      </trkpt>
      <trkpt lat="37.928283" lon="22.279155">
        <ele>882.106758</ele>
        <time>2023-07-15T17:36:08.000Z</time>
      </trkpt>
      <trkpt lat="37.928138" lon="22.279207">
        <ele>882.835963</ele>
        <time>2023-07-15T17:36:10.000Z</time>
      </trkpt>
      <trkpt lat="37.92803" lon="22.279261">
        <ele>883.424952</ele>
        <time>2023-07-15T17:36:11.000Z</time>
      </trkpt>
      <trkpt lat="37.927913" lon="22.279383">
        <ele>884.243015</ele>
        <time>2023-07-15T17:36:13.000Z</time>
      </trkpt>
      <trkpt lat="37.92778" lon="22.279555">
        <ele>885.17512</ele>
        <time>2023-07-15T17:36:15.000Z</time>
      </trkpt>
      <trkpt lat="37.927746" lon="22.279614">
        <ele>885.518646</ele>
        <time>2023-07-15T17:36:16.000Z</time>
      </trkpt>
      <trkpt lat="37.927703" lon="22.279657">
        <ele>885.75725</ele>
        <time>2023-07-15T17:36:17.000Z</time>
      </trkpt>
      <trkpt lat="37.927646" lon="22.279738">
        <ele>886.225064</ele>
        <time>2023-07-15T17:36:18.000Z</time>
      </trkpt>
      <trkpt lat="37.92728" lon="22.280238">
        <ele>888.999123</ele>
        <time>2023-07-15T17:36:24.000Z</time>
      </trkpt>
      <trkpt lat="37.927239" lon="22.280281">
        <ele>889.263543</ele>
        <time>2023-07-15T17:36:25.000Z</time>
      </trkpt>
      <trkpt lat="37.92708" lon="22.280508">
        <ele>890.461982</ele>
        <time>2023-07-15T17:36:28.000Z</time>
      </trkpt>
      <trkpt lat="37.926982" lon="22.280615">
        <ele>891.083433</ele>
        <time>2023-07-15T17:36:29.000Z</time>
      </trkpt>
      <trkpt lat="37.926715" lon="22.280998">
        <ele>892.915651</ele>
        <time>2023-07-15T17:36:33.000Z</time>
      </trkpt>
      <trkpt lat="37.926694" lon="22.281047">
        <ele>893.163103</ele>
        <time>2023-07-15T17:36:33.000Z</time>
      </trkpt>
      <trkpt lat="37.926634" lon="22.281149">
        <ele>893.606119</ele>
        <time>2023-07-15T17:36:34.000Z</time>
      </trkpt>
      <trkpt lat="37.92654" lon="22.281338">
        <ele>894.414176</ele>
        <time>2023-07-15T17:36:36.000Z</time>
      </trkpt>
      <trkpt lat="37.926514" lon="22.281536">
        <ele>895.131254</ele>
        <time>2023-07-15T17:36:38.000Z</time>
      </trkpt>
      <trkpt lat="37.926543" lon="22.281784">
        <ele>896.078417</ele>
        <time>2023-07-15T17:36:40.000Z</time>
      </trkpt>
      <trkpt lat="37.926625" lon="22.281965">
        <ele>896.822295</ele>
        <time>2023-07-15T17:36:42.000Z</time>
      </trkpt>
      <trkpt lat="37.926874" lon="22.282629">
        <ele>898.971552</ele>
        <time>2023-07-15T17:36:48.000Z</time>
      </trkpt>
      <trkpt lat="37.926821" lon="22.282911">
        <ele>899.090301</ele>
        <time>2023-07-15T17:36:51.000Z</time>
      </trkpt>
      <trkpt lat="37.926635" lon="22.283268">
        <ele>899.252841</ele>
        <time>2023-07-15T17:36:55.000Z</time>
      </trkpt>
      <trkpt lat="37.926618" lon="22.283772">
        <ele>899.460607</ele>
        <time>2023-07-15T17:36:59.000Z</time>
      </trkpt>
      <trkpt lat="37.926566" lon="22.284002">
        <ele>899.557508</ele>
        <time>2023-07-15T17:37:01.000Z</time>
      </trkpt>
      <trkpt lat="37.92649" lon="22.284128">
        <ele>899.620431</ele>
        <time>2023-07-15T17:37:02.000Z</time>
      </trkpt>
      <trkpt lat="37.9262" lon="22.284327">
        <ele>899.78947</ele>
        <time>2023-07-15T17:37:06.000Z</time>
      </trkpt>
      <trkpt lat="37.92607" lon="22.284843">
        <ele>899.688538</ele>
        <time>2023-07-15T17:37:11.000Z</time>
      </trkpt>
      <trkpt lat="37.925752" lon="22.285294">
        <ele>899.527269</ele>
        <time>2023-07-15T17:37:16.000Z</time>
      </trkpt>
      <trkpt lat="37.925252" lon="22.28548">
        <ele>899.353946</ele>
        <time>2023-07-15T17:37:22.000Z</time>
      </trkpt>
      <trkpt lat="37.924998" lon="22.285661">
        <ele>899.25204</ele>
        <time>2023-07-15T17:37:25.000Z</time>
      </trkpt>
      <trkpt lat="37.924965" lon="22.285862">
        <ele>899.122601</ele>
        <time>2023-07-15T17:37:27.000Z</time>
      </trkpt>
      <trkpt lat="37.925048" lon="22.286039">
        <ele>898.671015</ele>
        <time>2023-07-15T17:37:29.000Z</time>
      </trkpt>
      <trkpt lat="37.925275" lon="22.286199">
        <ele>897.94378</ele>
        <time>2023-07-15T17:37:32.000Z</time>
      </trkpt>
      <trkpt lat="37.925635" lon="22.286358">
        <ele>896.938018</ele>
        <time>2023-07-15T17:37:36.000Z</time>
      </trkpt>
      <trkpt lat="37.926032" lon="22.286298">
        <ele>895.842226</ele>
        <time>2023-07-15T17:37:40.000Z</time>
      </trkpt>
      <trkpt lat="37.926477" lon="22.28614">
        <ele>894.562269</ele>
        <time>2023-07-15T17:37:45.000Z</time>
      </trkpt>
      <trkpt lat="37.926553" lon="22.286124">
        <ele>894.360344</ele>
        <time>2023-07-15T17:37:46.000Z</time>
      </trkpt>
      <trkpt lat="37.926853" lon="22.286092">
        <ele>894.074048</ele>
        <time>2023-07-15T17:37:49.000Z</time>
      </trkpt>
      <trkpt lat="37.927143" lon="22.286069">
        <ele>893.848798</ele>
        <time>2023-07-15T17:37:52.000Z</time>
      </trkpt>
      <trkpt lat="37.927281" lon="22.286122">
        <ele>893.728846</ele>
        <time>2023-07-15T17:37:54.000Z</time>
      </trkpt>
      <trkpt lat="37.927317" lon="22.286172">
        <ele>893.699876</ele>
        <time>2023-07-15T17:37:55.000Z</time>
      </trkpt>
      <trkpt lat="37.927376" lon="22.286264">
        <ele>893.620025</ele>
        <time>2023-07-15T17:37:56.000Z</time>
      </trkpt>
      <trkpt lat="37.927358" lon="22.286403">
        <ele>893.53683</ele>
        <time>2023-07-15T17:37:57.000Z</time>
      </trkpt>
      <trkpt lat="37.927354" lon="22.286475">
        <ele>893.500728</ele>
        <time>2023-07-15T17:37:58.000Z</time>
      </trkpt>
      <trkpt lat="37.927055" lon="22.286893">
        <ele>893.161181</ele>
        <time>2023-07-15T17:38:03.000Z</time>
      </trkpt>
      <trkpt lat="37.927025" lon="22.286961">
        <ele>893.111213</ele>
        <time>2023-07-15T17:38:04.000Z</time>
      </trkpt>
      <trkpt lat="37.926671" lon="22.287205">
        <ele>893.107495</ele>
        <time>2023-07-15T17:38:08.000Z</time>
      </trkpt>
      <trkpt lat="37.926451" lon="22.287499">
        <ele>893.688578</ele>
        <time>2023-07-15T17:38:12.000Z</time>
      </trkpt>
      <trkpt lat="37.926279" lon="22.287612">
        <ele>894.014805</ele>
        <time>2023-07-15T17:38:14.000Z</time>
      </trkpt>
      <trkpt lat="37.926089" lon="22.287634">
        <ele>894.340764</ele>
        <time>2023-07-15T17:38:16.000Z</time>
      </trkpt>
      <trkpt lat="37.925879" lon="22.287561">
        <ele>894.739746</ele>
        <time>2023-07-15T17:38:18.000Z</time>
      </trkpt>
      <trkpt lat="37.925676" lon="22.287621">
        <ele>895.106521</ele>
        <time>2023-07-15T17:38:20.000Z</time>
      </trkpt>
      <trkpt lat="37.925449" lon="22.287819">
        <ele>895.598619</ele>
        <time>2023-07-15T17:38:23.000Z</time>
      </trkpt>
      <trkpt lat="37.925385" lon="22.288061">
        <ele>895.958018</ele>
        <time>2023-07-15T17:38:25.000Z</time>
      </trkpt>
      <trkpt lat="37.92538" lon="22.288267">
        <ele>895.952767</ele>
        <time>2023-07-15T17:38:27.000Z</time>
      </trkpt>
      <trkpt lat="37.925487" lon="22.288399">
        <ele>895.804205</ele>
        <time>2023-07-15T17:38:29.000Z</time>
      </trkpt>
      <trkpt lat="37.925626" lon="22.288761">
        <ele>895.497453</ele>
        <time>2023-07-15T17:38:33.000Z</time>
      </trkpt>
      <trkpt lat="37.925688" lon="22.289257">
        <ele>895.111881</ele>
        <time>2023-07-15T17:38:37.000Z</time>
      </trkpt>
      <trkpt lat="37.925586" lon="22.289521">
        <ele>894.88903</ele>
        <time>2023-07-15T17:38:40.000Z</time>
      </trkpt>
      <trkpt lat="37.924884" lon="22.290201">
        <ele>894.148838</ele>
        <time>2023-07-15T17:38:50.000Z</time>
      </trkpt>
      <trkpt lat="37.924036" lon="22.290587">
        <ele>893.635277</ele>
        <time>2023-07-15T17:39:00.000Z</time>
      </trkpt>
      <trkpt lat="37.923686" lon="22.290802">
        <ele>893.423521</ele>
        <time>2023-07-15T17:39:04.000Z</time>
      </trkpt>
      <trkpt lat="37.923601" lon="22.290962">
        <ele>893.333633</ele>
        <time>2023-07-15T17:39:06.000Z</time>
      </trkpt>
      <trkpt lat="37.923576" lon="22.291219">
        <ele>893.173114</ele>
        <time>2023-07-15T17:39:08.000Z</time>
      </trkpt>
      <trkpt lat="37.923877" lon="22.292072">
        <ele>892.438994</ele>
        <time>2023-07-15T17:39:16.000Z</time>
      </trkpt>
      <trkpt lat="37.923886" lon="22.292278">
        <ele>892.279862</ele>
        <time>2023-07-15T17:39:18.000Z</time>
      </trkpt>
      <trkpt lat="37.923909" lon="22.29245">
        <ele>892.148796</ele>
        <time>2023-07-15T17:39:20.000Z</time>
      </trkpt>
      <trkpt lat="37.923806" lon="22.292645">
        <ele>891.973155</ele>
        <time>2023-07-15T17:39:22.000Z</time>
      </trkpt>
      <trkpt lat="37.92379" lon="22.292723">
        <ele>891.91735</ele>
        <time>2023-07-15T17:39:23.000Z</time>
      </trkpt>
      <trkpt lat="37.923593" lon="22.29299">
        <ele>891.630427</ele>
        <time>2023-07-15T17:39:26.000Z</time>
      </trkpt>
      <trkpt lat="37.923262" lon="22.293486">
        <ele>890.675142</ele>
        <time>2023-07-15T17:39:32.000Z</time>
      </trkpt>
      <trkpt lat="37.923265" lon="22.293634">
        <ele>890.403954</ele>
        <time>2023-07-15T17:39:33.000Z</time>
      </trkpt>
      <trkpt lat="37.923336" lon="22.293628">
        <ele>890.2536</ele>
        <time>2023-07-15T17:39:34.000Z</time>
      </trkpt>
      <trkpt lat="37.923542" lon="22.293533">
        <ele>889.77833</ele>
        <time>2023-07-15T17:39:36.000Z</time>
      </trkpt>
      <trkpt lat="37.924063" lon="22.293129">
        <ele>888.482108</ele>
        <time>2023-07-15T17:39:43.000Z</time>
      </trkpt>
      <trkpt lat="37.924367" lon="22.292985">
        <ele>887.774366</ele>
        <time>2023-07-15T17:39:47.000Z</time>
      </trkpt>
      <trkpt lat="37.925024" lon="22.292821">
        <ele>887.63502</ele>
        <time>2023-07-15T17:39:54.000Z</time>
      </trkpt>
      <trkpt lat="37.9255" lon="22.292786">
        <ele>887.602096</ele>
        <time>2023-07-15T17:39:59.000Z</time>
      </trkpt>
      <trkpt lat="37.926513" lon="22.292307">
        <ele>888.092153</ele>
        <time>2023-07-15T17:40:11.000Z</time>
      </trkpt>
      <trkpt lat="37.926603" lon="22.292222">
        <ele>888.255356</ele>
        <time>2023-07-15T17:40:12.000Z</time>
      </trkpt>
      <trkpt lat="37.927108" lon="22.291715">
        <ele>889.16683</ele>
        <time>2023-07-15T17:40:19.000Z</time>
      </trkpt>
      <trkpt lat="37.927284" lon="22.291536">
        <ele>889.482248</ele>
        <time>2023-07-15T17:40:22.000Z</time>
      </trkpt>
      <trkpt lat="37.927349" lon="22.291476">
        <ele>889.582951</ele>
        <time>2023-07-15T17:40:23.000Z</time>
      </trkpt>
      <trkpt lat="37.927434" lon="22.291447">
        <ele>889.707548</ele>
        <time>2023-07-15T17:40:24.000Z</time>
      </trkpt>
      <trkpt lat="37.927734" lon="22.291365">
        <ele>890.126661</ele>
        <time>2023-07-15T17:40:27.000Z</time>
      </trkpt>
      <trkpt lat="37.927899" lon="22.291335">
        <ele>890.310474</ele>
        <time>2023-07-15T17:40:29.000Z</time>
      </trkpt>
      <trkpt lat="37.927915" lon="22.291329">
        <ele>890.326982</ele>
        <time>2023-07-15T17:40:29.000Z</time>
      </trkpt>
      <trkpt lat="37.928243" lon="22.291234">
        <ele>890.681241</ele>
        <time>2023-07-15T17:40:33.000Z</time>
      </trkpt>
      <trkpt lat="37.928344" lon="22.291217">
        <ele>890.805713</ele>
        <time>2023-07-15T17:40:34.000Z</time>
      </trkpt>
      <trkpt lat="37.928408" lon="22.291195">
        <ele>890.869451</ele>
        <time>2023-07-15T17:40:35.000Z</time>
      </trkpt>
      <trkpt lat="37.928578" lon="22.291042">
        <ele>891.082365</ele>
        <time>2023-07-15T17:40:37.000Z</time>
      </trkpt>
      <trkpt lat="37.928642" lon="22.290983">
        <ele>891.182422</ele>
        <time>2023-07-15T17:40:38.000Z</time>
      </trkpt>
      <trkpt lat="37.929236" lon="22.290473">
        <ele>891.942182</ele>
        <time>2023-07-15T17:40:46.000Z</time>
      </trkpt>
      <trkpt lat="37.92957" lon="22.290283">
        <ele>891.453692</ele>
        <time>2023-07-15T17:40:50.000Z</time>
      </trkpt>
      <trkpt lat="37.929585" lon="22.290268">
        <ele>891.430082</ele>
        <time>2023-07-15T17:40:50.000Z</time>
      </trkpt>
      <trkpt lat="37.929602" lon="22.290256">
        <ele>891.362499</ele>
        <time>2023-07-15T17:40:50.000Z</time>
      </trkpt>
      <trkpt lat="37.929676" lon="22.290241">
        <ele>891.245134</ele>
        <time>2023-07-15T17:40:51.000Z</time>
      </trkpt>
      <trkpt lat="37.929903" lon="22.29022">
        <ele>890.82529</ele>
        <time>2023-07-15T17:40:54.000Z</time>
      </trkpt>
      <trkpt lat="37.930001" lon="22.290218">
        <ele>890.656684</ele>
        <time>2023-07-15T17:40:55.000Z</time>
      </trkpt>
      <trkpt lat="37.93024" lon="22.290201">
        <ele>890.199399</ele>
        <time>2023-07-15T17:40:58.000Z</time>
      </trkpt>
      <trkpt lat="37.930351" lon="22.290188">
        <ele>889.993795</ele>
        <time>2023-07-15T17:40:59.000Z</time>
      </trkpt>
      <trkpt lat="37.931912" lon="22.289006">
        <ele>884.276936</ele>
        <time>2023-07-15T17:41:19.000Z</time>
      </trkpt>
      <trkpt lat="37.932243" lon="22.288738">
        <ele>882.664615</ele>
        <time>2023-07-15T17:41:23.000Z</time>
      </trkpt>
      <trkpt lat="37.93218" lon="22.288521">
        <ele>881.933652</ele>
        <time>2023-07-15T17:41:25.000Z</time>
      </trkpt>
      <trkpt lat="37.932104" lon="22.288393">
        <ele>881.510056</ele>
        <time>2023-07-15T17:41:26.000Z</time>
      </trkpt>
      <trkpt lat="37.931792" lon="22.287839">
        <ele>880.705515</ele>
        <time>2023-07-15T17:41:32.000Z</time>
      </trkpt>
      <trkpt lat="37.931543" lon="22.287075">
        <ele>879.728419</ele>
        <time>2023-07-15T17:41:39.000Z</time>
      </trkpt>
      <trkpt lat="37.93139" lon="22.286609">
        <ele>879.1168</ele>
        <time>2023-07-15T17:41:43.000Z</time>
      </trkpt>
      <trkpt lat="37.931352" lon="22.286521">
        <ele>879.007609</ele>
        <time>2023-07-15T17:41:44.000Z</time>
      </trkpt>
      <trkpt lat="37.931341" lon="22.286332">
        <ele>878.817712</ele>
        <time>2023-07-15T17:41:46.000Z</time>
      </trkpt>
      <trkpt lat="37.931332" lon="22.286239">
        <ele>878.773132</ele>
        <time>2023-07-15T17:41:47.000Z</time>
      </trkpt>
      <trkpt lat="37.931322" lon="22.28612">
        <ele>878.719369</ele>
        <time>2023-07-15T17:41:48.000Z</time>
      </trkpt>
      <trkpt lat="37.93129" lon="22.285904">
        <ele>878.619218</ele>
        <time>2023-07-15T17:41:50.000Z</time>
      </trkpt>
      <trkpt lat="37.931279" lon="22.285432">
        <ele>878.406872</ele>
        <time>2023-07-15T17:41:54.000Z</time>
      </trkpt>
      <trkpt lat="37.931392" lon="22.285067">
        <ele>878.235554</ele>
        <time>2023-07-15T17:41:57.000Z</time>
      </trkpt>
      <trkpt lat="37.931459" lon="22.284986">
        <ele>878.181538</ele>
        <time>2023-07-15T17:41:58.000Z</time>
      </trkpt>
      <trkpt lat="37.931696" lon="22.284691">
        <ele>877.984965</ele>
        <time>2023-07-15T17:42:02.000Z</time>
      </trkpt>
      <trkpt lat="37.93174" lon="22.284591">
        <ele>877.935627</ele>
        <time>2023-07-15T17:42:03.000Z</time>
      </trkpt>
      <trkpt lat="37.93175" lon="22.284527">
        <ele>877.909255</ele>
        <time>2023-07-15T17:42:04.000Z</time>
      </trkpt>
      <trkpt lat="37.93174" lon="22.284482">
        <ele>877.881991</ele>
        <time>2023-07-15T17:42:04.000Z</time>
      </trkpt>
      <trkpt lat="37.93172" lon="22.284363">
        <ele>877.828331</ele>
        <time>2023-07-15T17:42:05.000Z</time>
      </trkpt>
      <trkpt lat="37.931726" lon="22.284322">
        <ele>877.809874</ele>
        <time>2023-07-15T17:42:05.000Z</time>
      </trkpt>
      <trkpt lat="37.931714" lon="22.28431">
        <ele>877.796506</ele>
        <time>2023-07-15T17:42:05.000Z</time>
      </trkpt>
      <trkpt lat="37.931616" lon="22.284119">
        <ele>877.560708</ele>
        <time>2023-07-15T17:42:07.000Z</time>
      </trkpt>
      <trkpt lat="37.931514" lon="22.28404">
        <ele>877.412583</ele>
        <time>2023-07-15T17:42:08.000Z</time>
      </trkpt>
      <trkpt lat="37.931359" lon="22.283747">
        <ele>877.054863</ele>
        <time>2023-07-15T17:42:11.000Z</time>
      </trkpt>
      <trkpt lat="37.931297" lon="22.283501">
        <ele>876.782563</ele>
        <time>2023-07-15T17:42:13.000Z</time>
      </trkpt>
      <trkpt lat="37.931281" lon="22.283339">
        <ele>876.619544</ele>
        <time>2023-07-15T17:42:14.000Z</time>
      </trkpt>
      <trkpt lat="37.931232" lon="22.282946">
        <ele>876.209233</ele>
        <time>2023-07-15T17:42:17.000Z</time>
      </trkpt>
      <trkpt lat="37.931126" lon="22.281686">
        <ele>875.642214</ele>
        <time>2023-07-15T17:42:28.000Z</time>
      </trkpt>
      <trkpt lat="37.931036" lon="22.281362">
        <ele>875.739904</ele>
        <time>2023-07-15T17:42:31.000Z</time>
      </trkpt>
      <trkpt lat="37.930481" lon="22.280601">
        <ele>876.035928</ele>
        <time>2023-07-15T17:42:40.000Z</time>
      </trkpt>
      <trkpt lat="37.93032" lon="22.280439">
        <ele>876.109357</ele>
        <time>2023-07-15T17:42:42.000Z</time>
      </trkpt>
      <trkpt lat="37.930239" lon="22.2803">
        <ele>876.244094</ele>
        <time>2023-07-15T17:42:44.000Z</time>
      </trkpt>
      <trkpt lat="37.929988" lon="22.279875">
        <ele>877.067444</ele>
        <time>2023-07-15T17:42:49.000Z</time>
      </trkpt>
      <trkpt lat="37.929973" lon="22.27985">
        <ele>877.098459</ele>
        <time>2023-07-15T17:42:49.000Z</time>
      </trkpt>
      <trkpt lat="37.929978" lon="22.279822">
        <ele>877.13379</ele>
        <time>2023-07-15T17:42:49.000Z</time>
      </trkpt>
      <trkpt lat="37.929889" lon="22.279606">
        <ele>877.513276</ele>
        <time>2023-07-15T17:42:51.000Z</time>
      </trkpt>
      <trkpt lat="37.929807" lon="22.279337">
        <ele>877.935534</ele>
        <time>2023-07-15T17:42:54.000Z</time>
      </trkpt>
      <trkpt lat="37.929698" lon="22.279206">
        <ele>878.238746</ele>
        <time>2023-07-15T17:42:56.000Z</time>
      </trkpt>
      <trkpt lat="37.929593" lon="22.279065">
        <ele>878.522521</ele>
        <time>2023-07-15T17:42:58.000Z</time>
      </trkpt>
      <trkpt lat="37.929578" lon="22.279065">
        <ele>878.54167</ele>
        <time>2023-07-15T17:42:58.000Z</time>
      </trkpt>
      <trkpt lat="37.929492" lon="22.279041">
        <ele>878.711692</ele>
        <time>2023-07-15T17:42:59.000Z</time>
      </trkpt>
      <trkpt lat="37.92942" lon="22.279036">
        <ele>878.850682</ele>
        <time>2023-07-15T17:43:00.000Z</time>
      </trkpt>
      <trkpt lat="37.929391" lon="22.279049">
        <ele>878.904486</ele>
        <time>2023-07-15T17:43:00.000Z</time>
      </trkpt>
      <trkpt lat="37.929392" lon="22.279035">
        <ele>878.921832</ele>
        <time>2023-07-15T17:43:00.000Z</time>
      </trkpt>
      <trkpt lat="37.929022" lon="22.279058">
        <ele>879.656898</ele>
        <time>2023-07-15T17:43:04.000Z</time>
      </trkpt>
      <trkpt lat="37.928691" lon="22.279095">
        <ele>881.020555</ele>
        <time>2023-07-15T17:43:08.000Z</time>
      </trkpt>
      <trkpt lat="37.928404" lon="22.279128">
        <ele>882.103272</ele>
        <time>2023-07-15T17:43:11.000Z</time>
      </trkpt>
      <trkpt lat="37.928373" lon="22.279126">
        <ele>882.235639</ele>
        <time>2023-07-15T17:43:11.000Z</time>
      </trkpt>
      <trkpt lat="37.928361" lon="22.279121">
        <ele>882.307732</ele>
        <time>2023-07-15T17:43:11.000Z</time>
      </trkpt>
      <trkpt lat="37.92827" lon="22.279159">
        <ele>882.659579</ele>
        <time>2023-07-15T17:43:12.000Z</time>
      </trkpt>
      <trkpt lat="37.928142" lon="22.279219">
        <ele>883.229785</ele>
        <time>2023-07-15T17:43:14.000Z</time>
      </trkpt>
      <trkpt lat="37.92804" lon="22.27925">
        <ele>883.690351</ele>
        <time>2023-07-15T17:43:15.000Z</time>
      </trkpt>
      <trkpt lat="37.927914" lon="22.279386">
        <ele>884.33003</ele>
        <time>2023-07-15T17:43:17.000Z</time>
      </trkpt>
      <trkpt lat="37.92778" lon="22.27955">
        <ele>885.058896</ele>
        <time>2023-07-15T17:43:19.000Z</time>
      </trkpt>
      <trkpt lat="37.927734" lon="22.279622">
        <ele>885.327522</ele>
        <time>2023-07-15T17:43:20.000Z</time>
      </trkpt>
      <trkpt lat="37.927704" lon="22.279665">
        <ele>885.514081</ele>
        <time>2023-07-15T17:43:21.000Z</time>
      </trkpt>
      <trkpt lat="37.927638" lon="22.27975">
        <ele>885.879888</ele>
        <time>2023-07-15T17:43:22.000Z</time>
      </trkpt>
      <trkpt lat="37.927264" lon="22.280235">
        <ele>888.551348</ele>
        <time>2023-07-15T17:43:28.000Z</time>
      </trkpt>
      <trkpt lat="37.92724" lon="22.280291">
        <ele>888.840338</ele>
        <time>2023-07-15T17:43:29.000Z</time>
      </trkpt>
      <trkpt lat="37.927073" lon="22.280505">
        <ele>890.150254</ele>
        <time>2023-07-15T17:43:32.000Z</time>
      </trkpt>
      <trkpt lat="37.926972" lon="22.280616">
        <ele>890.889235</ele>
        <time>2023-07-15T17:43:33.000Z</time>
      </trkpt>
      <trkpt lat="37.926724" lon="22.28099">
        <ele>893.095407</ele>
        <time>2023-07-15T17:43:37.000Z</time>
      </trkpt>
      <trkpt lat="37.92669" lon="22.281058">
        <ele>893.393369</ele>
        <time>2023-07-15T17:43:38.000Z</time>
      </trkpt>
      <trkpt lat="37.92663" lon="22.28114">
        <ele>893.926803</ele>
        <time>2023-07-15T17:43:39.000Z</time>
      </trkpt>
      <trkpt lat="37.926542" lon="22.281337">
        <ele>894.899794</ele>
        <time>2023-07-15T17:43:41.000Z</time>
      </trkpt>
      <trkpt lat="37.926512" lon="22.281536">
        <ele>895.763243</ele>
        <time>2023-07-15T17:43:43.000Z</time>
      </trkpt>
      <trkpt lat="37.926557" lon="22.281776">
        <ele>896.863506</ele>
        <time>2023-07-15T17:43:45.000Z</time>
      </trkpt>
      <trkpt lat="37.926615" lon="22.28196">
        <ele>897.140837</ele>
        <time>2023-07-15T17:43:47.000Z</time>
      </trkpt>
      <trkpt lat="37.926874" lon="22.282625">
        <ele>898.159486</ele>
        <time>2023-07-15T17:43:54.000Z</time>
      </trkpt>
      <trkpt lat="37.926813" lon="22.28292">
        <ele>898.563056</ele>
        <time>2023-07-15T17:43:57.000Z</time>
      </trkpt>
      <trkpt lat="37.926642" lon="22.283266">
        <ele>899.115441</ele>
        <time>2023-07-15T17:44:01.000Z</time>
      </trkpt>
      <trkpt lat="37.926613" lon="22.28378">
        <ele>899.821562</ele>
        <time>2023-07-15T17:44:06.000Z</time>
      </trkpt>
      <trkpt lat="37.926558" lon="22.284006">
        <ele>899.941518</ele>
        <time>2023-07-15T17:44:08.000Z</time>
      </trkpt>
      <trkpt lat="37.9265" lon="22.284128">
        <ele>899.920846</ele>
        <time>2023-07-15T17:44:09.000Z</time>
      </trkpt>
      <trkpt lat="37.926204" lon="22.28433">
        <ele>899.865295</ele>
        <time>2023-07-15T17:44:13.000Z</time>
      </trkpt>
      <trkpt lat="37.926077" lon="22.284843">
        <ele>899.793382</ele>
        <time>2023-07-15T17:44:18.000Z</time>
      </trkpt>
      <trkpt lat="37.925751" lon="22.28529">
        <ele>899.713559</ele>
        <time>2023-07-15T17:44:23.000Z</time>
      </trkpt>
      <trkpt lat="37.925255" lon="22.285485">
        <ele>899.308778</ele>
        <time>2023-07-15T17:44:29.000Z</time>
      </trkpt>
      <trkpt lat="37.924983" lon="22.285666">
        <ele>898.740666</ele>
        <time>2023-07-15T17:44:32.000Z</time>
      </trkpt>
      <trkpt lat="37.924962" lon="22.28586">
        <ele>898.435284</ele>
        <time>2023-07-15T17:44:34.000Z</time>
      </trkpt>
      <trkpt lat="37.925054" lon="22.286043">
        <ele>898.124565</ele>
        <time>2023-07-15T17:44:36.000Z</time>
      </trkpt>
      <trkpt lat="37.925291" lon="22.286199">
        <ele>897.624191</ele>
        <time>2023-07-15T17:44:39.000Z</time>
      </trkpt>
      <trkpt lat="37.925632" lon="22.28635">
        <ele>896.932175</ele>
        <time>2023-07-15T17:44:43.000Z</time>
      </trkpt>
      <trkpt lat="37.926022" lon="22.2863">
        <ele>896.167037</ele>
        <time>2023-07-15T17:44:47.000Z</time>
      </trkpt>
      <trkpt lat="37.926488" lon="22.286146">
        <ele>895.176154</ele>
        <time>2023-07-15T17:44:52.000Z</time>
      </trkpt>
      <trkpt lat="37.926548" lon="22.286118">
        <ele>895.019816</ele>
        <time>2023-07-15T17:44:53.000Z</time>
      </trkpt>
      <trkpt lat="37.92685" lon="22.286103">
        <ele>894.390363</ele>
        <time>2023-07-15T17:44:56.000Z</time>
      </trkpt>
      <trkpt lat="37.927133" lon="22.286064">
        <ele>893.767361</ele>
        <time>2023-07-15T17:44:59.000Z</time>
      </trkpt>
      <trkpt lat="37.927298" lon="22.286121">
        <ele>893.435628</ele>
        <time>2023-07-15T17:45:01.000Z</time>
      </trkpt>
      <trkpt lat="37.927319" lon="22.286168">
        <ele>893.355484</ele>
        <time>2023-07-15T17:45:01.000Z</time>
      </trkpt>
      <trkpt lat="37.927373" lon="22.286266">
        <ele>893.134656</ele>
        <time>2023-07-15T17:45:02.000Z</time>
      </trkpt>
      <trkpt lat="37.927366" lon="22.286401">
        <ele>892.90456</ele>
        <time>2023-07-15T17:45:03.000Z</time>
      </trkpt>
      <trkpt lat="37.927344" lon="22.28647">
        <ele>892.804709</ele>
        <time>2023-07-15T17:45:04.000Z</time>
      </trkpt>
      <trkpt lat="37.927069" lon="22.286896">
        <ele>892.888678</ele>
        <time>2023-07-15T17:45:09.000Z</time>
      </trkpt>
      <trkpt lat="37.927024" lon="22.286957">
        <ele>892.991687</ele>
        <time>2023-07-15T17:45:10.000Z</time>
      </trkpt>
      <trkpt lat="37.926678" lon="22.287196">
        <ele>893.616718</ele>
        <time>2023-07-15T17:45:14.000Z</time>
      </trkpt>
      <trkpt lat="37.926446" lon="22.287505">
        <ele>894.140444</ele>
        <time>2023-07-15T17:45:18.000Z</time>
      </trkpt>
      <trkpt lat="37.926277" lon="22.287628">
        <ele>894.434488</ele>
        <time>2023-07-15T17:45:20.000Z</time>
      </trkpt>
      <trkpt lat="37.926096" lon="22.287648">
        <ele>894.728275</ele>
        <time>2023-07-15T17:45:22.000Z</time>
      </trkpt>
      <trkpt lat="37.92588" lon="22.287558">
        <ele>895.087877</ele>
        <time>2023-07-15T17:45:25.000Z</time>
      </trkpt>
      <trkpt lat="37.925688" lon="22.287615">
        <ele>895.291017</ele>
        <time>2023-07-15T17:45:27.000Z</time>
      </trkpt>
      <trkpt lat="37.925439" lon="22.287822">
        <ele>895.270695</ele>
        <time>2023-07-15T17:45:30.000Z</time>
      </trkpt>
      <trkpt lat="37.925392" lon="22.288054">
        <ele>895.255845</ele>
        <time>2023-07-15T17:45:32.000Z</time>
      </trkpt>
      <trkpt lat="37.925395" lon="22.288274">
        <ele>895.244176</ele>
        <time>2023-07-15T17:45:34.000Z</time>
      </trkpt>
      <trkpt lat="37.925493" lon="22.288406">
        <ele>895.233157</ele>
        <time>2023-07-15T17:45:36.000Z</time>
      </trkpt>
      <trkpt lat="37.92563" lon="22.288755">
        <ele>895.210378</ele>
        <time>2023-07-15T17:45:39.000Z</time>
      </trkpt>
      <trkpt lat="37.925683" lon="22.289265">
        <ele>895.181735</ele>
        <time>2023-07-15T17:45:44.000Z</time>
      </trkpt>
      <trkpt lat="37.925583" lon="22.289508">
        <ele>895.151977</ele>
        <time>2023-07-15T17:45:46.000Z</time>
      </trkpt>
      <trkpt lat="37.924897" lon="22.290195">
        <ele>894.29456</ele>
        <time>2023-07-15T17:45:56.000Z</time>
      </trkpt>
      <trkpt lat="37.924026" lon="22.290601">
        <ele>893.398025</ele>
        <time>2023-07-15T17:46:06.000Z</time>
      </trkpt>
      <trkpt lat="37.923688" lon="22.290809">
        <ele>893.226197</ele>
        <time>2023-07-15T17:46:10.000Z</time>
      </trkpt>
      <trkpt lat="37.923597" lon="22.290959">
        <ele>893.15324</ele>
        <time>2023-07-15T17:46:12.000Z</time>
      </trkpt>
      <trkpt lat="37.923564" lon="22.291203">
        <ele>893.064325</ele>
        <time>2023-07-15T17:46:14.000Z</time>
      </trkpt>
      <trkpt lat="37.923871" lon="22.292072">
        <ele>892.723179</ele>
        <time>2023-07-15T17:46:22.000Z</time>
      </trkpt>
      <trkpt lat="37.923888" lon="22.292284">
        <ele>892.649251</ele>
        <time>2023-07-15T17:46:24.000Z</time>
      </trkpt>
      <trkpt lat="37.923898" lon="22.29246">
        <ele>892.588326</ele>
        <time>2023-07-15T17:46:26.000Z</time>
      </trkpt>
      <trkpt lat="37.92381" lon="22.29265">
        <ele>892.235004</ele>
        <time>2023-07-15T17:46:28.000Z</time>
      </trkpt>
      <trkpt lat="37.923777" lon="22.292725">
        <ele>892.116383</ele>
        <time>2023-07-15T17:46:29.000Z</time>
      </trkpt>
      <trkpt lat="37.923598" lon="22.293005">
        <ele>891.506653</ele>
        <time>2023-07-15T17:46:32.000Z</time>
      </trkpt>
      <trkpt lat="37.923261" lon="22.293473">
        <ele>890.466227</ele>
        <time>2023-07-15T17:46:38.000Z</time>
      </trkpt>
      <trkpt lat="37.923254" lon="22.293641">
        <ele>890.203083</ele>
        <time>2023-07-15T17:46:39.000Z</time>
      </trkpt>
      <trkpt lat="37.923329" lon="22.293631">
        <ele>890.057182</ele>
        <time>2023-07-15T17:46:40.000Z</time>
      </trkpt>
      <trkpt lat="37.923541" lon="22.293542">
        <ele>889.596001</ele>
        <time>2023-07-15T17:46:42.000Z</time>
      </trkpt>
      <trkpt lat="37.924062" lon="22.293132">
        <ele>888.604284</ele>
        <time>2023-07-15T17:46:49.000Z</time>
      </trkpt>
      <trkpt lat="37.924354" lon="22.292991">
        <ele>888.280033</ele>
        <time>2023-07-15T17:46:52.000Z</time>
      </trkpt>
      <trkpt lat="37.925026" lon="22.292816">
        <ele>887.624634</ele>
        <time>2023-07-15T17:47:00.000Z</time>
      </trkpt>
      <trkpt lat="37.925491" lon="22.292785">
        <ele>887.150515</ele>
        <time>2023-07-15T17:47:05.000Z</time>
      </trkpt>
      <trkpt lat="37.926501" lon="22.292312">
        <ele>888.208191</ele>
        <time>2023-07-15T17:47:17.000Z</time>
      </trkpt>
      <trkpt lat="37.926594" lon="22.292214">
        <ele>888.339797</ele>
        <time>2023-07-15T17:47:18.000Z</time>
      </trkpt>
      <trkpt lat="37.927115" lon="22.291705">
        <ele>889.074831</ele>
        <time>2023-07-15T17:47:25.000Z</time>
      </trkpt>
      <trkpt lat="37.927283" lon="22.291533">
        <ele>889.380585</ele>
        <time>2023-07-15T17:47:27.000Z</time>
      </trkpt>
      <trkpt lat="37.927346" lon="22.291485">
        <ele>889.480844</ele>
        <time>2023-07-15T17:47:28.000Z</time>
      </trkpt>
      <trkpt lat="37.927425" lon="22.291456">
        <ele>889.604897</ele>
        <time>2023-07-15T17:47:29.000Z</time>
      </trkpt>
      <trkpt lat="37.927741" lon="22.291374">
        <ele>890.037169</ele>
        <time>2023-07-15T17:47:33.000Z</time>
      </trkpt>
      <trkpt lat="37.927904" lon="22.29133">
        <ele>890.275492</ele>
        <time>2023-07-15T17:47:35.000Z</time>
      </trkpt>
      <trkpt lat="37.927923" lon="22.291326">
        <ele>890.29689</ele>
        <time>2023-07-15T17:47:35.000Z</time>
      </trkpt>
      <trkpt lat="37.928245" lon="22.291241">
        <ele>890.756254</ele>
        <time>2023-07-15T17:47:39.000Z</time>
      </trkpt>
      <trkpt lat="37.928347" lon="22.291212">
        <ele>890.917634</ele>
        <time>2023-07-15T17:47:40.000Z</time>
      </trkpt>
      <trkpt lat="37.928411" lon="22.2912">
        <ele>891.000266</ele>
        <time>2023-07-15T17:47:41.000Z</time>
      </trkpt>
      <trkpt lat="37.928579" lon="22.291054">
        <ele>891.276348</ele>
        <time>2023-07-15T17:47:43.000Z</time>
      </trkpt>
      <trkpt lat="37.928645" lon="22.290993">
        <ele>891.406104</ele>
        <time>2023-07-15T17:47:44.000Z</time>
      </trkpt>
      <trkpt lat="37.929229" lon="22.29048">
        <ele>891.345911</ele>
        <time>2023-07-15T17:47:52.000Z</time>
      </trkpt>
      <trkpt lat="37.929557" lon="22.290281">
        <ele>891.160795</ele>
        <time>2023-07-15T17:47:56.000Z</time>
      </trkpt>
      <trkpt lat="37.929575" lon="22.290273">
        <ele>891.154379</ele>
        <time>2023-07-15T17:47:56.000Z</time>
      </trkpt>
      <trkpt lat="37.929618" lon="22.290246">
        <ele>891.13598</ele>
        <time>2023-07-15T17:47:57.000Z</time>
      </trkpt>
      <trkpt lat="37.929668" lon="22.29024">
        <ele>891.104052</ele>
        <time>2023-07-15T17:47:58.000Z</time>
      </trkpt>
      <trkpt lat="37.929904" lon="22.290222">
        <ele>890.989788</ele>
        <time>2023-07-15T17:48:01.000Z</time>
      </trkpt>
      <trkpt lat="37.929991" lon="22.290222">
        <ele>890.943897</ele>
        <time>2023-07-15T17:48:02.000Z</time>
      </trkpt>
      <trkpt lat="37.930244" lon="22.29019">
        <ele>890.819452</ele>
        <time>2023-07-15T17:48:05.000Z</time>
      </trkpt>
      <trkpt lat="37.93036" lon="22.290177">
        <ele>890.763512</ele>
        <time>2023-07-15T17:48:06.000Z</time>
      </trkpt>
      <trkpt lat="37.931897" lon="22.288997">
        <ele>884.131592</ele>
        <time>2023-07-15T17:48:26.000Z</time>
      </trkpt>
      <trkpt lat="37.932259" lon="22.288741">
        <ele>882.967318</ele>
        <time>2023-07-15T17:48:31.000Z</time>
      </trkpt>
      <trkpt lat="37.932177" lon="22.288511">
        <ele>882.472966</ele>
        <time>2023-07-15T17:48:33.000Z</time>
      </trkpt>
      <trkpt lat="37.932112" lon="22.288393">
        <ele>882.145044</ele>
        <time>2023-07-15T17:48:34.000Z</time>
      </trkpt>
      <trkpt lat="37.931799" lon="22.287835">
        <ele>880.700959</ele>
        <time>2023-07-15T17:48:40.000Z</time>
      </trkpt>
      <trkpt lat="37.931546" lon="22.287083">
        <ele>879.017447</ele>
        <time>2023-07-15T17:48:47.000Z</time>
      </trkpt>
      <trkpt lat="37.931385" lon="22.286599">
        <ele>878.895469</ele>
        <time>2023-07-15T17:48:52.000Z</time>
      </trkpt>
      <trkpt lat="37.931346" lon="22.28652">
        <ele>878.873683</ele>
        <time>2023-07-15T17:48:53.000Z</time>
      </trkpt>
      <trkpt lat="37.931329" lon="22.286335">
        <ele>878.827469</ele>
        <time>2023-07-15T17:48:55.000Z</time>
      </trkpt>
      <trkpt lat="37.931319" lon="22.286233">
        <ele>878.804343</ele>
        <time>2023-07-15T17:48:56.000Z</time>
      </trkpt>
      <trkpt lat="37.93132" lon="22.286117">
        <ele>878.776438</ele>
        <time>2023-07-15T17:48:57.000Z</time>
      </trkpt>
      <trkpt lat="37.931291" lon="22.285897">
        <ele>878.724477</ele>
        <time>2023-07-15T17:48:59.000Z</time>
      </trkpt>
      <trkpt lat="37.93129" lon="22.285423">
        <ele>878.614296</ele>
        <time>2023-07-15T17:49:03.000Z</time>
      </trkpt>
      <trkpt lat="37.931391" lon="22.285067">
        <ele>878.52542</ele>
        <time>2023-07-15T17:49:06.000Z</time>
      </trkpt>
      <trkpt lat="37.931452" lon="22.284993">
        <ele>878.497376</ele>
        <time>2023-07-15T17:49:07.000Z</time>
      </trkpt>
      <trkpt lat="37.931693" lon="22.284682">
        <ele>878.093976</ele>
        <time>2023-07-15T17:49:11.000Z</time>
      </trkpt>
      <trkpt lat="37.93174" lon="22.284596">
        <ele>877.984183</ele>
        <time>2023-07-15T17:49:12.000Z</time>
      </trkpt>
      <trkpt lat="37.931755" lon="22.284545">
        <ele>877.925523</ele>
        <time>2023-07-15T17:49:12.000Z</time>
      </trkpt>
      <trkpt lat="37.931753" lon="22.28447">
        <ele>877.864833</ele>
        <time>2023-07-15T17:49:13.000Z</time>
      </trkpt>
      <trkpt lat="37.931729" lon="22.284357">
        <ele>877.745465</ele>
        <time>2023-07-15T17:49:14.000Z</time>
      </trkpt>
      <trkpt lat="37.931719" lon="22.284313">
        <ele>877.704403</ele>
        <time>2023-07-15T17:49:14.000Z</time>
      </trkpt>
      <trkpt lat="37.931721" lon="22.284302">
        <ele>877.684753</ele>
        <time>2023-07-15T17:49:14.000Z</time>
      </trkpt>
      <trkpt lat="37.931621" lon="22.284104">
        <ele>877.449472</ele>
        <time>2023-07-15T17:49:16.000Z</time>
      </trkpt>
      <trkpt lat="37.931526" lon="22.284043">
        <ele>877.301664</ele>
        <time>2023-07-15T17:49:17.000Z</time>
      </trkpt>
      <trkpt lat="37.931359" lon="22.283762">
        <ele>876.944721</ele>
        <time>2023-07-15T17:49:20.000Z</time>
      </trkpt>
      <trkpt lat="37.9313" lon="22.283494">
        <ele>876.672997</ele>
        <time>2023-07-15T17:49:22.000Z</time>
      </trkpt>
      <trkpt lat="37.931232" lon="22.282932">
        <ele>876.152608</ele>
        <time>2023-07-15T17:49:27.000Z</time>
      </trkpt>
      <trkpt lat="37.931119" lon="22.281697">
        <ele>875.76478</ele>
        <time>2023-07-15T17:49:38.000Z</time>
      </trkpt>
      <trkpt lat="37.931033" lon="22.28137">
        <ele>875.658224</ele>
        <time>2023-07-15T17:49:41.000Z</time>
      </trkpt>
      <trkpt lat="37.930481" lon="22.280588">
        <ele>875.963029</ele>
        <time>2023-07-15T17:49:50.000Z</time>
      </trkpt>
      <trkpt lat="37.930318" lon="22.280429">
        <ele>876.256656</ele>
        <time>2023-07-15T17:49:52.000Z</time>
      </trkpt>
      <trkpt lat="37.93025" lon="22.280311">
        <ele>876.440103</ele>
        <time>2023-07-15T17:49:53.000Z</time>
      </trkpt>
      <trkpt lat="37.929992" lon="22.279873">
        <ele>877.056422</ele>
        <time>2023-07-15T17:49:58.000Z</time>
      </trkpt>
      <trkpt lat="37.929973" lon="22.279854">
        <ele>877.079647</ele>
        <time>2023-07-15T17:49:58.000Z</time>
      </trkpt>
      <trkpt lat="37.929971" lon="22.279828">
        <ele>877.106098</ele>
        <time>2023-07-15T17:49:58.000Z</time>
      </trkpt>
      <trkpt lat="37.929889" lon="22.279594">
        <ele>877.390151</ele>
        <time>2023-07-15T17:50:00.000Z</time>
      </trkpt>
      <trkpt lat="37.929807" lon="22.279345">
        <ele>877.706232</ele>
        <time>2023-07-15T17:50:02.000Z</time>
      </trkpt>
      <trkpt lat="37.929698" lon="22.279207">
        <ele>877.933191</ele>
        <time>2023-07-15T17:50:04.000Z</time>
      </trkpt>
      <trkpt lat="37.929596" lon="22.279062">
        <ele>878.107798362</ele>
        <time>2023-07-15T17:50:06.000Z</time>
      </trkpt>
      <trkpt lat="37.929574" lon="22.279063">
        <ele>878.132880887</ele>
        <time>2023-07-15T17:50:06.000Z</time>
      </trkpt>
      <trkpt lat="37.929496" lon="22.279056">
        <ele>878.221975118</ele>
        <time>2023-07-15T17:50:07.000Z</time>
      </trkpt>
      <trkpt lat="37.929416" lon="22.279042">
        <ele>878.313990005</ele>
        <time>2023-07-15T17:50:08.000Z</time>
      </trkpt>
      <trkpt lat="37.929391" lon="22.279041">
        <ele>878.342488747</ele>
        <time>2023-07-15T17:50:08.000Z</time>
      </trkpt>
      <trkpt lat="37.929386" lon="22.279045">
        <ele>878.349225043</ele>
        <time>2023-07-15T17:50:08.000Z</time>
      </trkpt>
      <trkpt lat="37.929021" lon="22.279061">
        <ele>878.765348246</ele>
        <time>2023-07-15T17:50:12.000Z</time>
      </trkpt>
      <trkpt lat="37.928679" lon="22.279098">
        <ele>879.15643336</ele>
        <time>2023-07-15T17:50:16.000Z</time>
      </trkpt>
      <trkpt lat="37.928415" lon="22.279113">
        <ele>879.457532324</ele>
        <time>2023-07-15T17:50:19.000Z</time>
      </trkpt>
      <trkpt lat="37.928373" lon="22.279129">
        <ele>879.507500151</ele>
        <time>2023-07-15T17:50:19.000Z</time>
      </trkpt>
      <trkpt lat="37.928361" lon="22.279126">
        <ele>879.521436044</ele>
        <time>2023-07-15T17:50:19.000Z</time>
      </trkpt>
      <trkpt lat="37.928277" lon="22.27916">
        <ele>879.621903717</ele>
        <time>2023-07-15T17:50:20.000Z</time>
      </trkpt>
    </trkseg>
  </trk>
</gpx>

<!--
Performance optimized by W3 Total Cache. Learn more: https://www.boldgrid.com/w3-total-cache/?utm_source=w3tc&utm_medium=footer_comment&utm_campaign=free_plugin

Page Caching using Disk: Enhanced{w3tc_pagecache_reject_reason} 

Served from: www.aquabike.world @ 2026-05-10 20:04:22 by W3 Total Cache
-->